<?xml version="1.0" encoding="UTF-8" standalone="no" ?>
<gpx xmlns="http://www.topografix.com/GPX/1/1" xmlns:xsi="http://www.w3.org/2001/XMLSchema-instance" xsi:schemaLocation="http://www.topografix.com/GPX/1/1 http://www.topografix.com/GPX/1/1/gpx.xsd" version="1.1" creator="VisuGPX - https://www.visugpx.com">
  <metadata>
    <name>Moulin lauga Couflens Port d'Aula</name>
  </metadata>
  <wpt lat="42.78851" lon="1.18639">
    <ele>722.8</ele>
    <name><![CDATA[port_aula_port_salau 40.826 ]]></name>
  </wpt>
  <trk>
    <name><![CDATA[Moulin lauga Couflens Port d'Aula_1]]></name>
    <trkseg>
      <trkpt lat="42.84242" lon="1.19112">
        <ele>546</ele>
        <time>2010-01-01T00:00:15Z</time>
      </trkpt>
      <trkpt lat="42.84219" lon="1.19168">
        <ele>548</ele>
        <time>2010-01-01T00:00:38Z</time>
      </trkpt>
      <trkpt lat="42.84195" lon="1.19235">
        <ele>553</ele>
        <time>2010-01-01T00:01:06Z</time>
      </trkpt>
      <trkpt lat="42.84136" lon="1.19358">
        <ele>556</ele>
        <time>2010-01-01T00:02:00Z</time>
      </trkpt>
      <trkpt lat="42.84063" lon="1.19445">
        <ele>556</ele>
        <time>2010-01-01T00:02:49Z</time>
      </trkpt>
      <trkpt lat="42.84014" lon="1.19484">
        <ele>551</ele>
        <time>2010-01-01T00:03:17Z</time>
      </trkpt>
      <trkpt lat="42.83963" lon="1.19572">
        <ele>556</ele>
        <time>2010-01-01T00:03:58Z</time>
      </trkpt>
      <trkpt lat="42.83928" lon="1.19593">
        <ele>554</ele>
        <time>2010-01-01T00:04:17Z</time>
      </trkpt>
      <trkpt lat="42.83901" lon="1.19669">
        <ele>555</ele>
        <time>2010-01-01T00:04:48Z</time>
      </trkpt>
      <trkpt lat="42.83881" lon="1.19777">
        <ele>557</ele>
        <time>2010-01-01T00:05:29Z</time>
      </trkpt>
      <trkpt lat="42.83864" lon="1.19825">
        <ele>558</ele>
        <time>2010-01-01T00:05:49Z</time>
      </trkpt>
      <trkpt lat="42.83823" lon="1.19841">
        <ele>563</ele>
        <time>2010-01-01T00:06:10Z</time>
      </trkpt>
      <trkpt lat="42.83771" lon="1.19811">
        <ele>563</ele>
        <time>2010-01-01T00:06:38Z</time>
      </trkpt>
      <trkpt lat="42.83693" lon="1.19811">
        <ele>570</ele>
        <time>2010-01-01T00:07:17Z</time>
      </trkpt>
      <trkpt lat="42.83619" lon="1.19827">
        <ele>574</ele>
        <time>2010-01-01T00:07:54Z</time>
      </trkpt>
      <trkpt lat="42.83578" lon="1.19807">
        <ele>587</ele>
        <time>2010-01-01T00:08:17Z</time>
      </trkpt>
      <trkpt lat="42.83572" lon="1.1972">
        <ele>585</ele>
        <time>2010-01-01T00:08:49Z</time>
      </trkpt>
      <trkpt lat="42.83585" lon="1.1968">
        <ele>576</ele>
        <time>2010-01-01T00:09:05Z</time>
      </trkpt>
      <trkpt lat="42.83575" lon="1.19625">
        <ele>566</ele>
        <time>2010-01-01T00:09:26Z</time>
      </trkpt>
      <trkpt lat="42.83539" lon="1.19604">
        <ele>566</ele>
        <time>2010-01-01T00:09:45Z</time>
      </trkpt>
      <trkpt lat="42.8349" lon="1.19616">
        <ele>565</ele>
        <time>2010-01-01T00:10:10Z</time>
      </trkpt>
      <trkpt lat="42.83464" lon="1.1965">
        <ele>565</ele>
        <time>2010-01-01T00:10:28Z</time>
      </trkpt>
      <trkpt lat="42.8346" lon="1.1968">
        <ele>566</ele>
        <time>2010-01-01T00:10:39Z</time>
      </trkpt>
      <trkpt lat="42.83422" lon="1.19748">
        <ele>568</ele>
        <time>2010-01-01T00:11:11Z</time>
      </trkpt>
      <trkpt lat="42.83381" lon="1.19793">
        <ele>570</ele>
        <time>2010-01-01T00:11:37Z</time>
      </trkpt>
      <trkpt lat="42.83324" lon="1.19823">
        <ele>573</ele>
        <time>2010-01-01T00:12:08Z</time>
      </trkpt>
      <trkpt lat="42.8327" lon="1.19834">
        <ele>568</ele>
        <time>2010-01-01T00:12:35Z</time>
      </trkpt>
      <trkpt lat="42.83217" lon="1.19833">
        <ele>573</ele>
        <time>2010-01-01T00:13:01Z</time>
      </trkpt>
      <trkpt lat="42.83184" lon="1.19851">
        <ele>573</ele>
        <time>2010-01-01T00:13:19Z</time>
      </trkpt>
      <trkpt lat="42.831" lon="1.19883">
        <ele>583</ele>
        <time>2010-01-01T00:14:03Z</time>
      </trkpt>
      <trkpt lat="42.8302" lon="1.19947">
        <ele>586</ele>
        <time>2010-01-01T00:14:49Z</time>
      </trkpt>
      <trkpt lat="42.82973" lon="1.19967">
        <ele>595</ele>
        <time>2010-01-01T00:15:14Z</time>
      </trkpt>
      <trkpt lat="42.82925" lon="1.19938">
        <ele>601</ele>
        <time>2010-01-01T00:15:40Z</time>
      </trkpt>
      <trkpt lat="42.82898" lon="1.19878">
        <ele>598</ele>
        <time>2010-01-01T00:16:06Z</time>
      </trkpt>
      <trkpt lat="42.82843" lon="1.19824">
        <ele>598</ele>
        <time>2010-01-01T00:16:40Z</time>
      </trkpt>
      <trkpt lat="42.82806" lon="1.19812">
        <ele>602</ele>
        <time>2010-01-01T00:16:59Z</time>
      </trkpt>
      <trkpt lat="42.8278" lon="1.1975">
        <ele>603</ele>
        <time>2010-01-01T00:17:25Z</time>
      </trkpt>
      <trkpt lat="42.82677" lon="1.1973">
        <ele>603</ele>
        <time>2010-01-01T00:18:17Z</time>
      </trkpt>
      <trkpt lat="42.82595" lon="1.19674">
        <ele>603</ele>
        <time>2010-01-01T00:19:03Z</time>
      </trkpt>
      <trkpt lat="42.82558" lon="1.19663">
        <ele>606</ele>
        <time>2010-01-01T00:19:22Z</time>
      </trkpt>
      <trkpt lat="42.82517" lon="1.19694">
        <ele>609</ele>
        <time>2010-01-01T00:19:46Z</time>
      </trkpt>
      <trkpt lat="42.82483" lon="1.1973">
        <ele>615</ele>
        <time>2010-01-01T00:20:07Z</time>
      </trkpt>
      <trkpt lat="42.82434" lon="1.19703">
        <ele>610</ele>
        <time>2010-01-01T00:20:34Z</time>
      </trkpt>
      <trkpt lat="42.82331" lon="1.19598">
        <ele>618</ele>
        <time>2010-01-01T00:21:38Z</time>
      </trkpt>
      <trkpt lat="42.82276" lon="1.19578">
        <ele>613</ele>
        <time>2010-01-01T00:22:07Z</time>
      </trkpt>
      <trkpt lat="42.82218" lon="1.19594">
        <ele>624</ele>
        <time>2010-01-01T00:22:36Z</time>
      </trkpt>
      <trkpt lat="42.82165" lon="1.1962">
        <ele>626</ele>
        <time>2010-01-01T00:23:04Z</time>
      </trkpt>
      <trkpt lat="42.82114" lon="1.19667">
        <ele>640</ele>
        <time>2010-01-01T00:23:35Z</time>
      </trkpt>
      <trkpt lat="42.82073" lon="1.19668">
        <ele>635</ele>
        <time>2010-01-01T00:23:56Z</time>
      </trkpt>
      <trkpt lat="42.82027" lon="1.19614">
        <ele>631</ele>
        <time>2010-01-01T00:24:26Z</time>
      </trkpt>
      <trkpt lat="42.8198" lon="1.1959">
        <ele>626</ele>
        <time>2010-01-01T00:24:51Z</time>
      </trkpt>
      <trkpt lat="42.81891" lon="1.19649">
        <ele>627</ele>
        <time>2010-01-01T00:25:41Z</time>
      </trkpt>
      <trkpt lat="42.81839" lon="1.19648">
        <ele>628</ele>
        <time>2010-01-01T00:26:07Z</time>
      </trkpt>
      <trkpt lat="42.8178" lon="1.19634">
        <ele>635</ele>
        <time>2010-01-01T00:26:37Z</time>
      </trkpt>
      <trkpt lat="42.81736" lon="1.19635">
        <ele>630</ele>
        <time>2010-01-01T00:26:58Z</time>
      </trkpt>
      <trkpt lat="42.81599" lon="1.1967">
        <ele>636</ele>
        <time>2010-01-01T00:28:08Z</time>
      </trkpt>
      <trkpt lat="42.81545" lon="1.19643">
        <ele>638</ele>
        <time>2010-01-01T00:28:37Z</time>
      </trkpt>
      <trkpt lat="42.8148" lon="1.19576">
        <ele>642</ele>
        <time>2010-01-01T00:29:18Z</time>
      </trkpt>
      <trkpt lat="42.81438" lon="1.19563">
        <ele>641</ele>
        <time>2010-01-01T00:29:40Z</time>
      </trkpt>
      <trkpt lat="42.81338" lon="1.19599">
        <ele>636</ele>
        <time>2010-01-01T00:30:31Z</time>
      </trkpt>
      <trkpt lat="42.81289" lon="1.19627">
        <ele>641</ele>
        <time>2010-01-01T00:30:58Z</time>
      </trkpt>
      <trkpt lat="42.81248" lon="1.19664">
        <ele>641</ele>
        <time>2010-01-01T00:31:22Z</time>
      </trkpt>
      <trkpt lat="42.81222" lon="1.19697">
        <ele>636</ele>
        <time>2010-01-01T00:31:40Z</time>
      </trkpt>
      <trkpt lat="42.81147" lon="1.19727">
        <ele>647</ele>
        <time>2010-01-01T00:32:19Z</time>
      </trkpt>
      <trkpt lat="42.81093" lon="1.19722">
        <ele>655</ele>
        <time>2010-01-01T00:32:47Z</time>
      </trkpt>
      <trkpt lat="42.81046" lon="1.19706">
        <ele>654</ele>
        <time>2010-01-01T00:33:11Z</time>
      </trkpt>
      <trkpt lat="42.80967" lon="1.1965">
        <ele>650</ele>
        <time>2010-01-01T00:33:55Z</time>
      </trkpt>
      <trkpt lat="42.80918" lon="1.1963">
        <ele>647</ele>
        <time>2010-01-01T00:34:21Z</time>
      </trkpt>
      <trkpt lat="42.80847" lon="1.19612">
        <ele>655</ele>
        <time>2010-01-01T00:34:57Z</time>
      </trkpt>
      <trkpt lat="42.80784" lon="1.19611">
        <ele>653</ele>
        <time>2010-01-01T00:35:28Z</time>
      </trkpt>
      <trkpt lat="42.80728" lon="1.19621">
        <ele>654</ele>
        <time>2010-01-01T00:35:57Z</time>
      </trkpt>
      <trkpt lat="42.80697" lon="1.19616">
        <ele>655</ele>
        <time>2010-01-01T00:36:12Z</time>
      </trkpt>
      <trkpt lat="42.80629" lon="1.19571">
        <ele>654</ele>
        <time>2010-01-01T00:36:50Z</time>
      </trkpt>
      <trkpt lat="42.80586" lon="1.19504">
        <ele>657</ele>
        <time>2010-01-01T00:37:23Z</time>
      </trkpt>
      <trkpt lat="42.8054" lon="1.19482">
        <ele>662</ele>
        <time>2010-01-01T00:37:47Z</time>
      </trkpt>
      <trkpt lat="42.80482" lon="1.19488">
        <ele>668</ele>
        <time>2010-01-01T00:38:17Z</time>
      </trkpt>
      <trkpt lat="42.80396" lon="1.19452">
        <ele>668</ele>
        <time>2010-01-01T00:39:02Z</time>
      </trkpt>
      <trkpt lat="42.80348" lon="1.1941">
        <ele>674</ele>
        <time>2010-01-01T00:39:30Z</time>
      </trkpt>
      <trkpt lat="42.80296" lon="1.19394">
        <ele>671</ele>
        <time>2010-01-01T00:39:57Z</time>
      </trkpt>
      <trkpt lat="42.80247" lon="1.19351">
        <ele>667</ele>
        <time>2010-01-01T00:40:26Z</time>
      </trkpt>
      <trkpt lat="42.80214" lon="1.19308">
        <ele>664</ele>
        <time>2010-01-01T00:40:49Z</time>
      </trkpt>
      <trkpt lat="42.80172" lon="1.19299">
        <ele>672</ele>
        <time>2010-01-01T00:41:10Z</time>
      </trkpt>
      <trkpt lat="42.80148" lon="1.19302">
        <ele>678</ele>
        <time>2010-01-01T00:41:22Z</time>
      </trkpt>
      <trkpt lat="42.80014" lon="1.19252">
        <ele>679</ele>
        <time>2010-01-01T00:42:31Z</time>
      </trkpt>
      <trkpt lat="42.79957" lon="1.19219">
        <ele>677</ele>
        <time>2010-01-01T00:43:02Z</time>
      </trkpt>
      <trkpt lat="42.79884" lon="1.19192">
        <ele>681</ele>
        <time>2010-01-01T00:43:40Z</time>
      </trkpt>
      <trkpt lat="42.79821" lon="1.19148">
        <ele>678</ele>
        <time>2010-01-01T00:44:16Z</time>
      </trkpt>
      <trkpt lat="42.7976" lon="1.19119">
        <ele>678</ele>
        <time>2010-01-01T00:44:48Z</time>
      </trkpt>
      <trkpt lat="42.79711" lon="1.19079">
        <ele>682</ele>
        <time>2010-01-01T00:45:17Z</time>
      </trkpt>
      <trkpt lat="42.79548" lon="1.1901">
        <ele>688</ele>
        <time>2010-01-01T00:46:42Z</time>
      </trkpt>
      <trkpt lat="42.79494" lon="1.19012">
        <ele>693</ele>
        <time>2010-01-01T00:47:09Z</time>
      </trkpt>
      <trkpt lat="42.79446" lon="1.19035">
        <ele>692</ele>
        <time>2010-01-01T00:47:35Z</time>
      </trkpt>
      <trkpt lat="42.7942" lon="1.19055">
        <ele>696</ele>
        <time>2010-01-01T00:47:50Z</time>
      </trkpt>
      <trkpt lat="42.79365" lon="1.19037">
        <ele>696</ele>
        <time>2010-01-01T00:48:18Z</time>
      </trkpt>
      <trkpt lat="42.79339" lon="1.1901">
        <ele>696</ele>
        <time>2010-01-01T00:48:34Z</time>
      </trkpt>
      <trkpt lat="42.79317" lon="1.18954">
        <ele>696</ele>
        <time>2010-01-01T00:48:57Z</time>
      </trkpt>
      <trkpt lat="42.7927" lon="1.18924">
        <ele>698</ele>
        <time>2010-01-01T00:49:24Z</time>
      </trkpt>
      <trkpt lat="42.79224" lon="1.18879">
        <ele>705</ele>
        <time>2010-01-01T00:49:52Z</time>
      </trkpt>
      <trkpt lat="42.79178" lon="1.18854">
        <ele>710</ele>
        <time>2010-01-01T00:50:17Z</time>
      </trkpt>
      <trkpt lat="42.79154" lon="1.18808">
        <ele>716</ele>
        <time>2010-01-01T00:50:37Z</time>
      </trkpt>
      <trkpt lat="42.79169" lon="1.18691">
        <ele>708</ele>
        <time>2010-01-01T00:51:21Z</time>
      </trkpt>
      <trkpt lat="42.79149" lon="1.18621">
        <ele>705</ele>
        <time>2010-01-01T00:51:48Z</time>
      </trkpt>
      <trkpt lat="42.79107" lon="1.18593">
        <ele>704</ele>
        <time>2010-01-01T00:52:12Z</time>
      </trkpt>
      <trkpt lat="42.79063" lon="1.18601">
        <ele>705</ele>
        <time>2010-01-01T00:52:34Z</time>
      </trkpt>
      <trkpt lat="42.79013" lon="1.18631">
        <ele>711</ele>
        <time>2010-01-01T00:53:01Z</time>
      </trkpt>
      <trkpt lat="42.78962" lon="1.18628">
        <ele>712</ele>
        <time>2010-01-01T00:53:27Z</time>
      </trkpt>
      <trkpt lat="42.7895" lon="1.18605">
        <ele>710</ele>
        <time>2010-01-01T00:53:37Z</time>
      </trkpt>
      <trkpt lat="42.78952" lon="1.18594">
        <ele>710</ele>
        <time>2010-01-01T00:53:41Z</time>
      </trkpt>
      <trkpt lat="42.7893" lon="1.18483">
        <ele>721</ele>
        <time>2010-01-01T00:54:24Z</time>
      </trkpt>
      <trkpt lat="42.78929" lon="1.18427">
        <ele>724</ele>
        <time>2010-01-01T00:54:44Z</time>
      </trkpt>
      <trkpt lat="42.78897" lon="1.18357">
        <ele>726</ele>
        <time>2010-01-01T00:55:14Z</time>
      </trkpt>
      <trkpt lat="42.7892" lon="1.18319">
        <ele>728</ele>
        <time>2010-01-01T00:55:32Z</time>
      </trkpt>
      <trkpt lat="42.78926" lon="1.18276">
        <ele>729</ele>
        <time>2010-01-01T00:55:48Z</time>
      </trkpt>
      <trkpt lat="42.78938" lon="1.18271">
        <ele>732</ele>
        <time>2010-01-01T00:55:55Z</time>
      </trkpt>
      <trkpt lat="42.78933" lon="1.18309">
        <ele>733</ele>
        <time>2010-01-01T00:56:09Z</time>
      </trkpt>
      <trkpt lat="42.78913" lon="1.18356">
        <ele>724</ele>
        <time>2010-01-01T00:56:29Z</time>
      </trkpt>
      <trkpt lat="42.78953" lon="1.18418">
        <ele>734</ele>
        <time>2010-01-01T00:56:59Z</time>
      </trkpt>
      <trkpt lat="42.78977" lon="1.18503">
        <ele>729</ele>
        <time>2010-01-01T00:57:33Z</time>
      </trkpt>
      <trkpt lat="42.79" lon="1.18516">
        <ele>733</ele>
        <time>2010-01-01T00:57:45Z</time>
      </trkpt>
      <trkpt lat="42.79053" lon="1.18488">
        <ele>753</ele>
        <time>2010-01-01T00:58:14Z</time>
      </trkpt>
      <trkpt lat="42.79086" lon="1.18484">
        <ele>756</ele>
        <time>2010-01-01T00:58:30Z</time>
      </trkpt>
      <trkpt lat="42.79119" lon="1.18488">
        <ele>762</ele>
        <time>2010-01-01T00:58:47Z</time>
      </trkpt>
      <trkpt lat="42.79178" lon="1.18514">
        <ele>761</ele>
        <time>2010-01-01T00:59:18Z</time>
      </trkpt>
      <trkpt lat="42.79236" lon="1.18552">
        <ele>769</ele>
        <time>2010-01-01T00:59:50Z</time>
      </trkpt>
      <trkpt lat="42.7928" lon="1.18661">
        <ele>770</ele>
        <time>2010-01-01T01:00:36Z</time>
      </trkpt>
      <trkpt lat="42.793" lon="1.18676">
        <ele>774</ele>
        <time>2010-01-01T01:00:47Z</time>
      </trkpt>
      <trkpt lat="42.79331" lon="1.18678">
        <ele>780</ele>
        <time>2010-01-01T01:01:02Z</time>
      </trkpt>
      <trkpt lat="42.7936" lon="1.18664">
        <ele>788</ele>
        <time>2010-01-01T01:01:18Z</time>
      </trkpt>
      <trkpt lat="42.79381" lon="1.18685">
        <ele>786</ele>
        <time>2010-01-01T01:01:31Z</time>
      </trkpt>
      <trkpt lat="42.79399" lon="1.1872">
        <ele>783</ele>
        <time>2010-01-01T01:01:46Z</time>
      </trkpt>
      <trkpt lat="42.79429" lon="1.18747">
        <ele>787</ele>
        <time>2010-01-01T01:02:05Z</time>
      </trkpt>
      <trkpt lat="42.7946" lon="1.18727">
        <ele>795</ele>
        <time>2010-01-01T01:02:22Z</time>
      </trkpt>
      <trkpt lat="42.79485" lon="1.18723">
        <ele>798</ele>
        <time>2010-01-01T01:02:34Z</time>
      </trkpt>
      <trkpt lat="42.79542" lon="1.18737">
        <ele>796</ele>
        <time>2010-01-01T01:03:04Z</time>
      </trkpt>
      <trkpt lat="42.79582" lon="1.18735">
        <ele>805</ele>
        <time>2010-01-01T01:03:24Z</time>
      </trkpt>
      <trkpt lat="42.79634" lon="1.18713">
        <ele>815</ele>
        <time>2010-01-01T01:03:51Z</time>
      </trkpt>
      <trkpt lat="42.79689" lon="1.18714">
        <ele>819</ele>
        <time>2010-01-01T01:04:18Z</time>
      </trkpt>
      <trkpt lat="42.79721" lon="1.18724">
        <ele>822</ele>
        <time>2010-01-01T01:04:35Z</time>
      </trkpt>
      <trkpt lat="42.79724" lon="1.18709">
        <ele>829</ele>
        <time>2010-01-01T01:04:41Z</time>
      </trkpt>
      <trkpt lat="42.79698" lon="1.18705">
        <ele>824</ele>
        <time>2010-01-01T01:04:54Z</time>
      </trkpt>
      <trkpt lat="42.79667" lon="1.18686">
        <ele>828</ele>
        <time>2010-01-01T01:05:11Z</time>
      </trkpt>
      <trkpt lat="42.79602" lon="1.18667">
        <ele>832</ele>
        <time>2010-01-01T01:05:44Z</time>
      </trkpt>
      <trkpt lat="42.79576" lon="1.18671">
        <ele>831</ele>
        <time>2010-01-01T01:05:57Z</time>
      </trkpt>
      <trkpt lat="42.7955" lon="1.18658">
        <ele>835</ele>
        <time>2010-01-01T01:06:11Z</time>
      </trkpt>
      <trkpt lat="42.79504" lon="1.18604">
        <ele>851</ele>
        <time>2010-01-01T01:06:41Z</time>
      </trkpt>
      <trkpt lat="42.79444" lon="1.18562">
        <ele>846</ele>
        <time>2010-01-01T01:07:15Z</time>
      </trkpt>
      <trkpt lat="42.79421" lon="1.18553">
        <ele>844</ele>
        <time>2010-01-01T01:07:27Z</time>
      </trkpt>
      <trkpt lat="42.79421" lon="1.1854">
        <ele>848</ele>
        <time>2010-01-01T01:07:32Z</time>
      </trkpt>
      <trkpt lat="42.79459" lon="1.18544">
        <ele>856</ele>
        <time>2010-01-01T01:07:50Z</time>
      </trkpt>
      <trkpt lat="42.79546" lon="1.18585">
        <ele>867</ele>
        <time>2010-01-01T01:08:37Z</time>
      </trkpt>
      <trkpt lat="42.79572" lon="1.1859">
        <ele>868</ele>
        <time>2010-01-01T01:08:50Z</time>
      </trkpt>
      <trkpt lat="42.79583" lon="1.18576">
        <ele>876</ele>
        <time>2010-01-01T01:08:57Z</time>
      </trkpt>
      <trkpt lat="42.79552" lon="1.1857">
        <ele>875</ele>
        <time>2010-01-01T01:09:13Z</time>
      </trkpt>
      <trkpt lat="42.7944" lon="1.18443">
        <ele>883</ele>
        <time>2010-01-01T01:10:26Z</time>
      </trkpt>
      <trkpt lat="42.79397" lon="1.18418">
        <ele>879</ele>
        <time>2010-01-01T01:10:50Z</time>
      </trkpt>
      <trkpt lat="42.79365" lon="1.18345">
        <ele>898</ele>
        <time>2010-01-01T01:11:20Z</time>
      </trkpt>
      <trkpt lat="42.79343" lon="1.18317">
        <ele>903</ele>
        <time>2010-01-01T01:11:35Z</time>
      </trkpt>
      <trkpt lat="42.79298" lon="1.18284">
        <ele>906</ele>
        <time>2010-01-01T01:12:01Z</time>
      </trkpt>
      <trkpt lat="42.79276" lon="1.18264">
        <ele>910</ele>
        <time>2010-01-01T01:12:14Z</time>
      </trkpt>
      <trkpt lat="42.79222" lon="1.18244">
        <ele>904</ele>
        <time>2010-01-01T01:12:42Z</time>
      </trkpt>
      <trkpt lat="42.79197" lon="1.18222">
        <ele>904</ele>
        <time>2010-01-01T01:12:58Z</time>
      </trkpt>
      <trkpt lat="42.79186" lon="1.18147">
        <ele>921</ele>
        <time>2010-01-01T01:13:25Z</time>
      </trkpt>
      <trkpt lat="42.79161" lon="1.18084">
        <ele>917</ele>
        <time>2010-01-01T01:13:52Z</time>
      </trkpt>
      <trkpt lat="42.7915" lon="1.18029">
        <ele>917</ele>
        <time>2010-01-01T01:14:13Z</time>
      </trkpt>
      <trkpt lat="42.79152" lon="1.17982">
        <ele>921</ele>
        <time>2010-01-01T01:14:30Z</time>
      </trkpt>
      <trkpt lat="42.79174" lon="1.17905">
        <ele>927</ele>
        <time>2010-01-01T01:15:00Z</time>
      </trkpt>
      <trkpt lat="42.79232" lon="1.17834">
        <ele>942</ele>
        <time>2010-01-01T01:15:40Z</time>
      </trkpt>
      <trkpt lat="42.79241" lon="1.17784">
        <ele>940</ele>
        <time>2010-01-01T01:15:58Z</time>
      </trkpt>
      <trkpt lat="42.79234" lon="1.17756">
        <ele>939</ele>
        <time>2010-01-01T01:16:09Z</time>
      </trkpt>
      <trkpt lat="42.7925" lon="1.17753">
        <ele>947</ele>
        <time>2010-01-01T01:16:17Z</time>
      </trkpt>
      <trkpt lat="42.79254" lon="1.17851">
        <ele>954</ele>
        <time>2010-01-01T01:16:53Z</time>
      </trkpt>
      <trkpt lat="42.79242" lon="1.17894">
        <ele>958</ele>
        <time>2010-01-01T01:17:10Z</time>
      </trkpt>
      <trkpt lat="42.79224" lon="1.17929">
        <ele>955</ele>
        <time>2010-01-01T01:17:26Z</time>
      </trkpt>
      <trkpt lat="42.79217" lon="1.17983">
        <ele>956</ele>
        <time>2010-01-01T01:17:46Z</time>
      </trkpt>
      <trkpt lat="42.79225" lon="1.18018">
        <ele>959</ele>
        <time>2010-01-01T01:18:00Z</time>
      </trkpt>
      <trkpt lat="42.79235" lon="1.18">
        <ele>964</ele>
        <time>2010-01-01T01:18:08Z</time>
      </trkpt>
      <trkpt lat="42.79241" lon="1.17952">
        <ele>963</ele>
        <time>2010-01-01T01:18:26Z</time>
      </trkpt>
      <trkpt lat="42.79289" lon="1.17877">
        <ele>981</ele>
        <time>2010-01-01T01:19:02Z</time>
      </trkpt>
      <trkpt lat="42.79307" lon="1.17825">
        <ele>980</ele>
        <time>2010-01-01T01:19:23Z</time>
      </trkpt>
      <trkpt lat="42.79306" lon="1.17753">
        <ele>977</ele>
        <time>2010-01-01T01:19:50Z</time>
      </trkpt>
      <trkpt lat="42.79286" lon="1.17658">
        <ele>985</ele>
        <time>2010-01-01T01:20:26Z</time>
      </trkpt>
      <trkpt lat="42.79258" lon="1.17598">
        <ele>988</ele>
        <time>2010-01-01T01:20:52Z</time>
      </trkpt>
      <trkpt lat="42.79252" lon="1.17512">
        <ele>1005</ele>
        <time>2010-01-01T01:21:24Z</time>
      </trkpt>
      <trkpt lat="42.79244" lon="1.17475">
        <ele>1013</ele>
        <time>2010-01-01T01:21:38Z</time>
      </trkpt>
      <trkpt lat="42.79208" lon="1.17433">
        <ele>1010</ele>
        <time>2010-01-01T01:22:02Z</time>
      </trkpt>
      <trkpt lat="42.79181" lon="1.17366">
        <ele>1018</ele>
        <time>2010-01-01T01:22:30Z</time>
      </trkpt>
      <trkpt lat="42.79123" lon="1.17303">
        <ele>1021</ele>
        <time>2010-01-01T01:23:07Z</time>
      </trkpt>
      <trkpt lat="42.79101" lon="1.17257">
        <ele>1028</ele>
        <time>2010-01-01T01:23:27Z</time>
      </trkpt>
      <trkpt lat="42.79102" lon="1.17217">
        <ele>1032</ele>
        <time>2010-01-01T01:23:42Z</time>
      </trkpt>
      <trkpt lat="42.79119" lon="1.17181">
        <ele>1039</ele>
        <time>2010-01-01T01:23:58Z</time>
      </trkpt>
      <trkpt lat="42.7914" lon="1.17051">
        <ele>1046</ele>
        <time>2010-01-01T01:24:46Z</time>
      </trkpt>
      <trkpt lat="42.79132" lon="1.17013">
        <ele>1049</ele>
        <time>2010-01-01T01:25:01Z</time>
      </trkpt>
      <trkpt lat="42.79147" lon="1.16973">
        <ele>1066</ele>
        <time>2010-01-01T01:25:17Z</time>
      </trkpt>
      <trkpt lat="42.79134" lon="1.16948">
        <ele>1064</ele>
        <time>2010-01-01T01:25:28Z</time>
      </trkpt>
      <trkpt lat="42.79111" lon="1.1692">
        <ele>1057</ele>
        <time>2010-01-01T01:25:44Z</time>
      </trkpt>
      <trkpt lat="42.79102" lon="1.16891">
        <ele>1058</ele>
        <time>2010-01-01T01:25:56Z</time>
      </trkpt>
      <trkpt lat="42.79109" lon="1.16848">
        <ele>1067</ele>
        <time>2010-01-01T01:26:12Z</time>
      </trkpt>
      <trkpt lat="42.79122" lon="1.1684">
        <ele>1073</ele>
        <time>2010-01-01T01:26:19Z</time>
      </trkpt>
      <trkpt lat="42.7912" lon="1.16872">
        <ele>1070</ele>
        <time>2010-01-01T01:26:31Z</time>
      </trkpt>
      <trkpt lat="42.79134" lon="1.16897">
        <ele>1071</ele>
        <time>2010-01-01T01:26:42Z</time>
      </trkpt>
      <trkpt lat="42.79203" lon="1.16924">
        <ele>1091</ele>
        <time>2010-01-01T01:27:18Z</time>
      </trkpt>
      <trkpt lat="42.79212" lon="1.16936">
        <ele>1093</ele>
        <time>2010-01-01T01:27:24Z</time>
      </trkpt>
      <trkpt lat="42.79222" lon="1.17014">
        <ele>1097</ele>
        <time>2010-01-01T01:27:54Z</time>
      </trkpt>
      <trkpt lat="42.79256" lon="1.1712">
        <ele>1104</ele>
        <time>2010-01-01T01:28:36Z</time>
      </trkpt>
      <trkpt lat="42.79275" lon="1.1717">
        <ele>1107</ele>
        <time>2010-01-01T01:28:57Z</time>
      </trkpt>
      <trkpt lat="42.79288" lon="1.17178">
        <ele>1109</ele>
        <time>2010-01-01T01:29:04Z</time>
      </trkpt>
      <trkpt lat="42.7928" lon="1.17148">
        <ele>1113</ele>
        <time>2010-01-01T01:29:16Z</time>
      </trkpt>
      <trkpt lat="42.7928" lon="1.17038">
        <ele>1121</ele>
        <time>2010-01-01T01:29:56Z</time>
      </trkpt>
      <trkpt lat="42.7931" lon="1.16869">
        <ele>1138</ele>
        <time>2010-01-01T01:31:00Z</time>
      </trkpt>
      <trkpt lat="42.7934" lon="1.16731">
        <ele>1155</ele>
        <time>2010-01-01T01:31:53Z</time>
      </trkpt>
      <trkpt lat="42.79306" lon="1.16583">
        <ele>1162</ele>
        <time>2010-01-01T01:32:50Z</time>
      </trkpt>
      <trkpt lat="42.7929" lon="1.1656">
        <ele>1167</ele>
        <time>2010-01-01T01:33:02Z</time>
      </trkpt>
      <trkpt lat="42.79204" lon="1.16494">
        <ele>1168</ele>
        <time>2010-01-01T01:33:51Z</time>
      </trkpt>
      <trkpt lat="42.79184" lon="1.16446">
        <ele>1175</ele>
        <time>2010-01-01T01:34:12Z</time>
      </trkpt>
      <trkpt lat="42.79188" lon="1.16357">
        <ele>1193</ele>
        <time>2010-01-01T01:34:44Z</time>
      </trkpt>
      <trkpt lat="42.79154" lon="1.16232">
        <ele>1194</ele>
        <time>2010-01-01T01:35:33Z</time>
      </trkpt>
      <trkpt lat="42.79164" lon="1.16204">
        <ele>1194</ele>
        <time>2010-01-01T01:35:45Z</time>
      </trkpt>
      <trkpt lat="42.79194" lon="1.16179">
        <ele>1206</ele>
        <time>2010-01-01T01:36:02Z</time>
      </trkpt>
      <trkpt lat="42.79244" lon="1.16106">
        <ele>1212</ele>
        <time>2010-01-01T01:36:39Z</time>
      </trkpt>
      <trkpt lat="42.79271" lon="1.16063">
        <ele>1219</ele>
        <time>2010-01-01T01:37:00Z</time>
      </trkpt>
      <trkpt lat="42.79294" lon="1.16041">
        <ele>1227</ele>
        <time>2010-01-01T01:37:14Z</time>
      </trkpt>
      <trkpt lat="42.79295" lon="1.16024">
        <ele>1226</ele>
        <time>2010-01-01T01:37:20Z</time>
      </trkpt>
      <trkpt lat="42.79236" lon="1.15957">
        <ele>1223</ele>
        <time>2010-01-01T01:37:58Z</time>
      </trkpt>
      <trkpt lat="42.79209" lon="1.15907">
        <ele>1237</ele>
        <time>2010-01-01T01:38:21Z</time>
      </trkpt>
      <trkpt lat="42.7917" lon="1.15863">
        <ele>1236</ele>
        <time>2010-01-01T01:38:47Z</time>
      </trkpt>
      <trkpt lat="42.79161" lon="1.15829">
        <ele>1237</ele>
        <time>2010-01-01T01:39:00Z</time>
      </trkpt>
      <trkpt lat="42.79221" lon="1.15541">
        <ele>1266</ele>
        <time>2010-01-01T01:40:50Z</time>
      </trkpt>
      <trkpt lat="42.79227" lon="1.15506">
        <ele>1268</ele>
        <time>2010-01-01T01:41:03Z</time>
      </trkpt>
      <trkpt lat="42.79236" lon="1.15512">
        <ele>1274</ele>
        <time>2010-01-01T01:41:08Z</time>
      </trkpt>
      <trkpt lat="42.79238" lon="1.1564">
        <ele>1280</ele>
        <time>2010-01-01T01:41:55Z</time>
      </trkpt>
      <trkpt lat="42.79246" lon="1.15638">
        <ele>1285</ele>
        <time>2010-01-01T01:42:00Z</time>
      </trkpt>
      <trkpt lat="42.79254" lon="1.15575">
        <ele>1290</ele>
        <time>2010-01-01T01:42:23Z</time>
      </trkpt>
      <trkpt lat="42.79275" lon="1.15489">
        <ele>1297</ele>
        <time>2010-01-01T01:42:57Z</time>
      </trkpt>
      <trkpt lat="42.79273" lon="1.15431">
        <ele>1302</ele>
        <time>2010-01-01T01:43:18Z</time>
      </trkpt>
      <trkpt lat="42.79248" lon="1.15298">
        <ele>1311</ele>
        <time>2010-01-01T01:44:08Z</time>
      </trkpt>
      <trkpt lat="42.79207" lon="1.15224">
        <ele>1318</ele>
        <time>2010-01-01T01:44:42Z</time>
      </trkpt>
      <trkpt lat="42.79182" lon="1.15104">
        <ele>1331</ele>
        <time>2010-01-01T01:45:28Z</time>
      </trkpt>
      <trkpt lat="42.79163" lon="1.15022">
        <ele>1343</ele>
        <time>2010-01-01T01:46:00Z</time>
      </trkpt>
      <trkpt lat="42.79138" lon="1.14962">
        <ele>1346</ele>
        <time>2010-01-01T01:46:25Z</time>
      </trkpt>
      <trkpt lat="42.79118" lon="1.14855">
        <ele>1362</ele>
        <time>2010-01-01T01:47:06Z</time>
      </trkpt>
      <trkpt lat="42.79095" lon="1.14811">
        <ele>1363</ele>
        <time>2010-01-01T01:47:26Z</time>
      </trkpt>
      <trkpt lat="42.79104" lon="1.14812">
        <ele>1364</ele>
        <time>2010-01-01T01:47:30Z</time>
      </trkpt>
      <trkpt lat="42.79146" lon="1.14867">
        <ele>1369</ele>
        <time>2010-01-01T01:47:59Z</time>
      </trkpt>
      <trkpt lat="42.79204" lon="1.1496">
        <ele>1376</ele>
        <time>2010-01-01T01:48:44Z</time>
      </trkpt>
      <trkpt lat="42.79243" lon="1.15009">
        <ele>1386</ele>
        <time>2010-01-01T01:49:10Z</time>
      </trkpt>
      <trkpt lat="42.79272" lon="1.15069">
        <ele>1393</ele>
        <time>2010-01-01T01:49:37Z</time>
      </trkpt>
      <trkpt lat="42.79287" lon="1.15087">
        <ele>1400</ele>
        <time>2010-01-01T01:49:47Z</time>
      </trkpt>
      <trkpt lat="42.79271" lon="1.15027">
        <ele>1400</ele>
        <time>2010-01-01T01:50:10Z</time>
      </trkpt>
      <trkpt lat="42.79266" lon="1.14971">
        <ele>1412</ele>
        <time>2010-01-01T01:50:31Z</time>
      </trkpt>
      <trkpt lat="42.79232" lon="1.14883">
        <ele>1413</ele>
        <time>2010-01-01T01:51:07Z</time>
      </trkpt>
      <trkpt lat="42.79192" lon="1.14696">
        <ele>1427</ele>
        <time>2010-01-01T01:52:19Z</time>
      </trkpt>
      <trkpt lat="42.79161" lon="1.14617">
        <ele>1435</ele>
        <time>2010-01-01T01:52:52Z</time>
      </trkpt>
      <trkpt lat="42.79147" lon="1.14591">
        <ele>1435</ele>
        <time>2010-01-01T01:53:04Z</time>
      </trkpt>
      <trkpt lat="42.79133" lon="1.14498">
        <ele>1446</ele>
        <time>2010-01-01T01:53:38Z</time>
      </trkpt>
      <trkpt lat="42.79092" lon="1.14399">
        <ele>1467</ele>
        <time>2010-01-01T01:54:20Z</time>
      </trkpt>
      <trkpt lat="42.79078" lon="1.14393">
        <ele>1469</ele>
        <time>2010-01-01T01:54:27Z</time>
      </trkpt>
      <trkpt lat="42.79001" lon="1.14399">
        <ele>1475</ele>
        <time>2010-01-01T01:55:06Z</time>
      </trkpt>
      <trkpt lat="42.78981" lon="1.14418">
        <ele>1476</ele>
        <time>2010-01-01T01:55:18Z</time>
      </trkpt>
      <trkpt lat="42.78924" lon="1.14503">
        <ele>1477</ele>
        <time>2010-01-01T01:56:00Z</time>
      </trkpt>
      <trkpt lat="42.78881" lon="1.14549">
        <ele>1489</ele>
        <time>2010-01-01T01:56:28Z</time>
      </trkpt>
      <trkpt lat="42.7886" lon="1.14604">
        <ele>1494</ele>
        <time>2010-01-01T01:56:50Z</time>
      </trkpt>
      <trkpt lat="42.78853" lon="1.14633">
        <ele>1491</ele>
        <time>2010-01-01T01:57:02Z</time>
      </trkpt>
      <trkpt lat="42.78847" lon="1.14623">
        <ele>1498</ele>
        <time>2010-01-01T01:57:06Z</time>
      </trkpt>
      <trkpt lat="42.78855" lon="1.14558">
        <ele>1506</ele>
        <time>2010-01-01T01:57:30Z</time>
      </trkpt>
      <trkpt lat="42.78872" lon="1.14453">
        <ele>1518</ele>
        <time>2010-01-01T01:58:10Z</time>
      </trkpt>
      <trkpt lat="42.78921" lon="1.14284">
        <ele>1526</ele>
        <time>2010-01-01T01:59:16Z</time>
      </trkpt>
      <trkpt lat="42.78941" lon="1.14239">
        <ele>1535</ele>
        <time>2010-01-01T01:59:36Z</time>
      </trkpt>
      <trkpt lat="42.78929" lon="1.14186">
        <ele>1545</ele>
        <time>2010-01-01T01:59:56Z</time>
      </trkpt>
      <trkpt lat="42.78869" lon="1.14165">
        <ele>1548</ele>
        <time>2010-01-01T02:00:27Z</time>
      </trkpt>
      <trkpt lat="42.78777" lon="1.14087">
        <ele>1564</ele>
        <time>2010-01-01T02:01:21Z</time>
      </trkpt>
      <trkpt lat="42.78713" lon="1.14039">
        <ele>1559</ele>
        <time>2010-01-01T02:01:58Z</time>
      </trkpt>
      <trkpt lat="42.78636" lon="1.14001">
        <ele>1584</ele>
        <time>2010-01-01T02:02:39Z</time>
      </trkpt>
      <trkpt lat="42.78608" lon="1.1399">
        <ele>1594</ele>
        <time>2010-01-01T02:02:53Z</time>
      </trkpt>
      <trkpt lat="42.78594" lon="1.13972">
        <ele>1591</ele>
        <time>2010-01-01T02:03:03Z</time>
      </trkpt>
      <trkpt lat="42.78518" lon="1.13828">
        <ele>1601</ele>
        <time>2010-01-01T02:04:08Z</time>
      </trkpt>
      <trkpt lat="42.7849" lon="1.1372">
        <ele>1602</ele>
        <time>2010-01-01T02:04:50Z</time>
      </trkpt>
      <trkpt lat="42.78477" lon="1.13602">
        <ele>1613</ele>
        <time>2010-01-01T02:05:34Z</time>
      </trkpt>
      <trkpt lat="42.78464" lon="1.13573">
        <ele>1616</ele>
        <time>2010-01-01T02:05:47Z</time>
      </trkpt>
      <trkpt lat="42.78431" lon="1.13545">
        <ele>1622</ele>
        <time>2010-01-01T02:06:06Z</time>
      </trkpt>
      <trkpt lat="42.78426" lon="1.13514">
        <ele>1614</ele>
        <time>2010-01-01T02:06:17Z</time>
      </trkpt>
      <trkpt lat="42.78415" lon="1.13519">
        <ele>1619</ele>
        <time>2010-01-01T02:06:24Z</time>
      </trkpt>
      <trkpt lat="42.7842" lon="1.13549">
        <ele>1627</ele>
        <time>2010-01-01T02:06:35Z</time>
      </trkpt>
      <trkpt lat="42.78474" lon="1.13609">
        <ele>1615</ele>
        <time>2010-01-01T02:07:10Z</time>
      </trkpt>
      <trkpt lat="42.78468" lon="1.13672">
        <ele>1625</ele>
        <time>2010-01-01T02:07:33Z</time>
      </trkpt>
      <trkpt lat="42.78459" lon="1.13657">
        <ele>1636</ele>
        <time>2010-01-01T02:07:41Z</time>
      </trkpt>
      <trkpt lat="42.7845" lon="1.13619">
        <ele>1638</ele>
        <time>2010-01-01T02:07:55Z</time>
      </trkpt>
      <trkpt lat="42.78424" lon="1.13608">
        <ele>1645</ele>
        <time>2010-01-01T02:08:09Z</time>
      </trkpt>
      <trkpt lat="42.78361" lon="1.13558">
        <ele>1651</ele>
        <time>2010-01-01T02:08:46Z</time>
      </trkpt>
      <trkpt lat="42.78357" lon="1.13566">
        <ele>1654</ele>
        <time>2010-01-01T02:08:49Z</time>
      </trkpt>
      <trkpt lat="42.78412" lon="1.13636">
        <ele>1661</ele>
        <time>2010-01-01T02:09:27Z</time>
      </trkpt>
      <trkpt lat="42.78421" lon="1.13657">
        <ele>1663</ele>
        <time>2010-01-01T02:09:36Z</time>
      </trkpt>
      <trkpt lat="42.78404" lon="1.13651">
        <ele>1667</ele>
        <time>2010-01-01T02:09:44Z</time>
      </trkpt>
      <trkpt lat="42.78381" lon="1.13629">
        <ele>1665</ele>
        <time>2010-01-01T02:09:58Z</time>
      </trkpt>
      <trkpt lat="42.78333" lon="1.13603">
        <ele>1673</ele>
        <time>2010-01-01T02:10:24Z</time>
      </trkpt>
      <trkpt lat="42.78231" lon="1.13503">
        <ele>1680</ele>
        <time>2010-01-01T02:11:27Z</time>
      </trkpt>
      <trkpt lat="42.78229" lon="1.13446">
        <ele>1685</ele>
        <time>2010-01-01T02:11:48Z</time>
      </trkpt>
      <trkpt lat="42.78213" lon="1.13422">
        <ele>1688</ele>
        <time>2010-01-01T02:12:00Z</time>
      </trkpt>
      <trkpt lat="42.78183" lon="1.13347">
        <ele>1695</ele>
        <time>2010-01-01T02:12:32Z</time>
      </trkpt>
      <trkpt lat="42.78174" lon="1.13336">
        <ele>1698</ele>
        <time>2010-01-01T02:12:38Z</time>
      </trkpt>
      <trkpt lat="42.7816" lon="1.13351">
        <ele>1696</ele>
        <time>2010-01-01T02:12:46Z</time>
      </trkpt>
      <trkpt lat="42.78139" lon="1.13412">
        <ele>1697</ele>
        <time>2010-01-01T02:13:11Z</time>
      </trkpt>
      <trkpt lat="42.78129" lon="1.13422">
        <ele>1701</ele>
        <time>2010-01-01T02:13:17Z</time>
      </trkpt>
      <trkpt lat="42.78126" lon="1.13414">
        <ele>1702</ele>
        <time>2010-01-01T02:13:20Z</time>
      </trkpt>
      <trkpt lat="42.78133" lon="1.13376">
        <ele>1696</ele>
        <time>2010-01-01T02:13:35Z</time>
      </trkpt>
      <trkpt lat="42.78125" lon="1.13288">
        <ele>1703</ele>
        <time>2010-01-01T02:14:07Z</time>
      </trkpt>
      <trkpt lat="42.78108" lon="1.13236">
        <ele>1705</ele>
        <time>2010-01-01T02:14:28Z</time>
      </trkpt>
      <trkpt lat="42.781" lon="1.1324">
        <ele>1706</ele>
        <time>2010-01-01T02:14:32Z</time>
      </trkpt>
      <trkpt lat="42.7811" lon="1.13302">
        <ele>1708</ele>
        <time>2010-01-01T02:14:56Z</time>
      </trkpt>
      <trkpt lat="42.78108" lon="1.13387">
        <ele>1714</ele>
        <time>2010-01-01T02:15:27Z</time>
      </trkpt>
      <trkpt lat="42.78097" lon="1.13391">
        <ele>1728</ele>
        <time>2010-01-01T02:15:32Z</time>
      </trkpt>
      <trkpt lat="42.78089" lon="1.13336">
        <ele>1734</ele>
        <time>2010-01-01T02:15:53Z</time>
      </trkpt>
      <trkpt lat="42.78065" lon="1.13267">
        <ele>1721</ele>
        <time>2010-01-01T02:16:21Z</time>
      </trkpt>
      <trkpt lat="42.78049" lon="1.13243">
        <ele>1726</ele>
        <time>2010-01-01T02:16:33Z</time>
      </trkpt>
      <trkpt lat="42.78037" lon="1.1325">
        <ele>1729</ele>
        <time>2010-01-01T02:16:40Z</time>
      </trkpt>
      <trkpt lat="42.78049" lon="1.13316">
        <ele>1754</ele>
        <time>2010-01-01T02:17:05Z</time>
      </trkpt>
      <trkpt lat="42.78063" lon="1.13352">
        <ele>1754</ele>
        <time>2010-01-01T02:17:20Z</time>
      </trkpt>
      <trkpt lat="42.78062" lon="1.13386">
        <ele>1759</ele>
        <time>2010-01-01T02:17:32Z</time>
      </trkpt>
      <trkpt lat="42.78014" lon="1.13301">
        <ele>1760</ele>
        <time>2010-01-01T02:18:12Z</time>
      </trkpt>
      <trkpt lat="42.78006" lon="1.13294">
        <ele>1760</ele>
        <time>2010-01-01T02:18:16Z</time>
      </trkpt>
      <trkpt lat="42.78004" lon="1.13305">
        <ele>1768</ele>
        <time>2010-01-01T02:18:20Z</time>
      </trkpt>
      <trkpt lat="42.78031" lon="1.13375">
        <ele>1774</ele>
        <time>2010-01-01T02:18:49Z</time>
      </trkpt>
      <trkpt lat="42.78047" lon="1.13448">
        <ele>1763</ele>
        <time>2010-01-01T02:19:17Z</time>
      </trkpt>
      <trkpt lat="42.7805" lon="1.13471">
        <ele>1758</ele>
        <time>2010-01-01T02:19:26Z</time>
      </trkpt>
      <trkpt lat="42.78042" lon="1.1347">
        <ele>1763</ele>
        <time>2010-01-01T02:19:30Z</time>
      </trkpt>
      <trkpt lat="42.78015" lon="1.13396">
        <ele>1783</ele>
        <time>2010-01-01T02:20:00Z</time>
      </trkpt>
      <trkpt lat="42.77997" lon="1.13367">
        <ele>1786</ele>
        <time>2010-01-01T02:20:14Z</time>
      </trkpt>
      <trkpt lat="42.77972" lon="1.13346">
        <ele>1793</ele>
        <time>2010-01-01T02:20:29Z</time>
      </trkpt>
      <trkpt lat="42.77933" lon="1.13291">
        <ele>1790</ele>
        <time>2010-01-01T02:20:57Z</time>
      </trkpt>
      <trkpt lat="42.7793" lon="1.13302">
        <ele>1802</ele>
        <time>2010-01-01T02:21:01Z</time>
      </trkpt>
      <trkpt lat="42.77967" lon="1.1337">
        <ele>1798</ele>
        <time>2010-01-01T02:21:32Z</time>
      </trkpt>
      <trkpt lat="42.77993" lon="1.1344">
        <ele>1797</ele>
        <time>2010-01-01T02:22:01Z</time>
      </trkpt>
      <trkpt lat="42.78002" lon="1.13507">
        <ele>1817</ele>
        <time>2010-01-01T02:22:26Z</time>
      </trkpt>
      <trkpt lat="42.77954" lon="1.1341">
        <ele>1806</ele>
        <time>2010-01-01T02:23:09Z</time>
      </trkpt>
      <trkpt lat="42.77885" lon="1.13327">
        <ele>1833</ele>
        <time>2010-01-01T02:23:55Z</time>
      </trkpt>
      <trkpt lat="42.77872" lon="1.13319">
        <ele>1836</ele>
        <time>2010-01-01T02:24:02Z</time>
      </trkpt>
      <trkpt lat="42.77916" lon="1.13405">
        <ele>1828</ele>
        <time>2010-01-01T02:24:40Z</time>
      </trkpt>
      <trkpt lat="42.7795" lon="1.13507">
        <ele>1835</ele>
        <time>2010-01-01T02:25:21Z</time>
      </trkpt>
      <trkpt lat="42.77939" lon="1.13499">
        <ele>1838</ele>
        <time>2010-01-01T02:25:27Z</time>
      </trkpt>
      <trkpt lat="42.77926" lon="1.13462">
        <ele>1835</ele>
        <time>2010-01-01T02:25:43Z</time>
      </trkpt>
      <trkpt lat="42.77839" lon="1.13354">
        <ele>1853</ele>
        <time>2010-01-01T02:26:41Z</time>
      </trkpt>
      <trkpt lat="42.77765" lon="1.1324">
        <ele>1865</ele>
        <time>2010-01-01T02:27:37Z</time>
      </trkpt>
      <trkpt lat="42.77755" lon="1.13207">
        <ele>1862</ele>
        <time>2010-01-01T02:27:50Z</time>
      </trkpt>
      <trkpt lat="42.77759" lon="1.13134">
        <ele>1871</ele>
        <time>2010-01-01T02:28:17Z</time>
      </trkpt>
      <trkpt lat="42.77752" lon="1.13105">
        <ele>1886</ele>
        <time>2010-01-01T02:28:28Z</time>
      </trkpt>
      <trkpt lat="42.77765" lon="1.13074">
        <ele>1876</ele>
        <time>2010-01-01T02:28:41Z</time>
      </trkpt>
      <trkpt lat="42.77762" lon="1.1305">
        <ele>1875</ele>
        <time>2010-01-01T02:28:50Z</time>
      </trkpt>
      <trkpt lat="42.77754" lon="1.13048">
        <ele>1881</ele>
        <time>2010-01-01T02:28:55Z</time>
      </trkpt>
      <trkpt lat="42.77754" lon="1.13064">
        <ele>1883</ele>
        <time>2010-01-01T02:29:00Z</time>
      </trkpt>
      <trkpt lat="42.77727" lon="1.13119">
        <ele>1887</ele>
        <time>2010-01-01T02:29:25Z</time>
      </trkpt>
      <trkpt lat="42.77703" lon="1.13137">
        <ele>1885</ele>
        <time>2010-01-01T02:29:38Z</time>
      </trkpt>
      <trkpt lat="42.77691" lon="1.13135">
        <ele>1888</ele>
        <time>2010-01-01T02:29:44Z</time>
      </trkpt>
      <trkpt lat="42.77676" lon="1.13091">
        <ele>1894</ele>
        <time>2010-01-01T02:30:02Z</time>
      </trkpt>
      <trkpt lat="42.77663" lon="1.13093">
        <ele>1892</ele>
        <time>2010-01-01T02:30:09Z</time>
      </trkpt>
      <trkpt lat="42.77658" lon="1.13072">
        <ele>1891</ele>
        <time>2010-01-01T02:30:17Z</time>
      </trkpt>
      <trkpt lat="42.7764" lon="1.13055">
        <ele>1888</ele>
        <time>2010-01-01T02:30:28Z</time>
      </trkpt>
      <trkpt lat="42.77556" lon="1.12849">
        <ele>1920</ele>
        <time>2010-01-01T02:31:54Z</time>
      </trkpt>
      <trkpt lat="42.77533" lon="1.12833">
        <ele>1914</ele>
        <time>2010-01-01T02:32:07Z</time>
      </trkpt>
      <trkpt lat="42.77496" lon="1.12845">
        <ele>1913</ele>
        <time>2010-01-01T02:32:27Z</time>
      </trkpt>
      <trkpt lat="42.77479" lon="1.12861">
        <ele>1914</ele>
        <time>2010-01-01T02:32:37Z</time>
      </trkpt>
      <trkpt lat="42.77449" lon="1.12916">
        <ele>1919</ele>
        <time>2010-01-01T02:33:02Z</time>
      </trkpt>
      <trkpt lat="42.77437" lon="1.12951">
        <ele>1919</ele>
        <time>2010-01-01T02:33:16Z</time>
      </trkpt>
      <trkpt lat="42.77437" lon="1.13022">
        <ele>1931</ele>
        <time>2010-01-01T02:33:42Z</time>
      </trkpt>
      <trkpt lat="42.77429" lon="1.13066">
        <ele>1934</ele>
        <time>2010-01-01T02:33:59Z</time>
      </trkpt>
      <trkpt lat="42.77436" lon="1.13095">
        <ele>1933</ele>
        <time>2010-01-01T02:34:10Z</time>
      </trkpt>
      <trkpt lat="42.77433" lon="1.1312">
        <ele>1941</ele>
        <time>2010-01-01T02:34:20Z</time>
      </trkpt>
      <trkpt lat="42.77416" lon="1.13103">
        <ele>1944</ele>
        <time>2010-01-01T02:34:30Z</time>
      </trkpt>
      <trkpt lat="42.77402" lon="1.1307">
        <ele>1945</ele>
        <time>2010-01-01T02:34:44Z</time>
      </trkpt>
      <trkpt lat="42.77401" lon="1.13029">
        <ele>1949</ele>
        <time>2010-01-01T02:34:59Z</time>
      </trkpt>
      <trkpt lat="42.77394" lon="1.13012">
        <ele>1952</ele>
        <time>2010-01-01T02:35:06Z</time>
      </trkpt>
      <trkpt lat="42.77382" lon="1.13026">
        <ele>1954</ele>
        <time>2010-01-01T02:35:14Z</time>
      </trkpt>
      <trkpt lat="42.77381" lon="1.13057">
        <ele>1953</ele>
        <time>2010-01-01T02:35:26Z</time>
      </trkpt>
      <trkpt lat="42.77374" lon="1.13076">
        <ele>1956</ele>
        <time>2010-01-01T02:35:33Z</time>
      </trkpt>
      <trkpt lat="42.77359" lon="1.13045">
        <ele>1959</ele>
        <time>2010-01-01T02:35:47Z</time>
      </trkpt>
      <trkpt lat="42.77357" lon="1.13015">
        <ele>1960</ele>
        <time>2010-01-01T02:35:58Z</time>
      </trkpt>
      <trkpt lat="42.77389" lon="1.12856">
        <ele>1961</ele>
        <time>2010-01-01T02:36:58Z</time>
      </trkpt>
      <trkpt lat="42.77404" lon="1.12756">
        <ele>1974</ele>
        <time>2010-01-01T02:37:36Z</time>
      </trkpt>
      <trkpt lat="42.77412" lon="1.12731">
        <ele>1975</ele>
        <time>2010-01-01T02:37:46Z</time>
      </trkpt>
      <trkpt lat="42.77432" lon="1.12706">
        <ele>1978</ele>
        <time>2010-01-01T02:37:59Z</time>
      </trkpt>
      <trkpt lat="42.7743" lon="1.12689">
        <ele>1981</ele>
        <time>2010-01-01T02:38:06Z</time>
      </trkpt>
      <trkpt lat="42.77417" lon="1.12697">
        <ele>1979</ele>
        <time>2010-01-01T02:38:13Z</time>
      </trkpt>
      <trkpt lat="42.77372" lon="1.12749">
        <ele>1986</ele>
        <time>2010-01-01T02:38:43Z</time>
      </trkpt>
      <trkpt lat="42.77367" lon="1.12722">
        <ele>1990</ele>
        <time>2010-01-01T02:38:53Z</time>
      </trkpt>
      <trkpt lat="42.77372" lon="1.12691">
        <ele>1994</ele>
        <time>2010-01-01T02:39:04Z</time>
      </trkpt>
      <trkpt lat="42.77389" lon="1.1266">
        <ele>1990</ele>
        <time>2010-01-01T02:39:19Z</time>
      </trkpt>
      <trkpt lat="42.77439" lon="1.12625">
        <ele>1986</ele>
        <time>2010-01-01T02:39:47Z</time>
      </trkpt>
      <trkpt lat="42.77441" lon="1.12609">
        <ele>1988</ele>
        <time>2010-01-01T02:39:53Z</time>
      </trkpt>
      <trkpt lat="42.77422" lon="1.12587">
        <ele>1993</ele>
        <time>2010-01-01T02:40:05Z</time>
      </trkpt>
      <trkpt lat="42.77405" lon="1.12546">
        <ele>2002</ele>
        <time>2010-01-01T02:40:22Z</time>
      </trkpt>
      <trkpt lat="42.77396" lon="1.12497">
        <ele>2001</ele>
        <time>2010-01-01T02:40:41Z</time>
      </trkpt>
      <trkpt lat="42.77349" lon="1.12467">
        <ele>2011</ele>
        <time>2010-01-01T02:41:07Z</time>
      </trkpt>
      <trkpt lat="42.77378" lon="1.12342">
        <ele>2013</ele>
        <time>2010-01-01T02:41:55Z</time>
      </trkpt>
      <trkpt lat="42.77399" lon="1.1228">
        <ele>2012</ele>
        <time>2010-01-01T02:42:20Z</time>
      </trkpt>
      <trkpt lat="42.77406" lon="1.12209">
        <ele>2020</ele>
        <time>2010-01-01T02:42:46Z</time>
      </trkpt>
      <trkpt lat="42.77394" lon="1.12183">
        <ele>2023</ele>
        <time>2010-01-01T02:42:58Z</time>
      </trkpt>
      <trkpt lat="42.7738" lon="1.12097">
        <ele>2031</ele>
        <time>2010-01-01T02:43:30Z</time>
      </trkpt>
      <trkpt lat="42.77378" lon="1.12028">
        <ele>2033</ele>
        <time>2010-01-01T02:43:55Z</time>
      </trkpt>
      <trkpt lat="42.77385" lon="1.11999">
        <ele>2032</ele>
        <time>2010-01-01T02:44:06Z</time>
      </trkpt>
      <trkpt lat="42.77395" lon="1.11987">
        <ele>2029</ele>
        <time>2010-01-01T02:44:13Z</time>
      </trkpt>
      <trkpt lat="42.77399" lon="1.11956">
        <ele>2029</ele>
        <time>2010-01-01T02:44:25Z</time>
      </trkpt>
      <trkpt lat="42.77393" lon="1.11954">
        <ele>2032</ele>
        <time>2010-01-01T02:44:28Z</time>
      </trkpt>
      <trkpt lat="42.77372" lon="1.11973">
        <ele>2040</ele>
        <time>2010-01-01T02:44:41Z</time>
      </trkpt>
      <trkpt lat="42.77349" lon="1.11971">
        <ele>2046</ele>
        <time>2010-01-01T02:44:52Z</time>
      </trkpt>
      <trkpt lat="42.77329" lon="1.1198">
        <ele>2049</ele>
        <time>2010-01-01T02:45:03Z</time>
      </trkpt>
      <trkpt lat="42.77296" lon="1.12025">
        <ele>2049</ele>
        <time>2010-01-01T02:45:26Z</time>
      </trkpt>
      <trkpt lat="42.77293" lon="1.12152">
        <ele>2054</ele>
        <time>2010-01-01T02:46:13Z</time>
      </trkpt>
      <trkpt lat="42.77281" lon="1.12183">
        <ele>2061</ele>
        <time>2010-01-01T02:46:26Z</time>
      </trkpt>
      <trkpt lat="42.77263" lon="1.12279">
        <ele>2068</ele>
        <time>2010-01-01T02:47:02Z</time>
      </trkpt>
      <trkpt lat="42.77241" lon="1.12335">
        <ele>2070</ele>
        <time>2010-01-01T02:47:26Z</time>
      </trkpt>
      <trkpt lat="42.77206" lon="1.124">
        <ele>2082</ele>
        <time>2010-01-01T02:47:55Z</time>
      </trkpt>
      <trkpt lat="42.77199" lon="1.12516">
        <ele>2089</ele>
        <time>2010-01-01T02:48:38Z</time>
      </trkpt>
      <trkpt lat="42.77192" lon="1.12542">
        <ele>2093</ele>
        <time>2010-01-01T02:48:48Z</time>
      </trkpt>
      <trkpt lat="42.77184" lon="1.12545">
        <ele>2096</ele>
        <time>2010-01-01T02:48:52Z</time>
      </trkpt>
      <trkpt lat="42.77182" lon="1.1251">
        <ele>2095</ele>
        <time>2010-01-01T02:49:05Z</time>
      </trkpt>
      <trkpt lat="42.77166" lon="1.12458">
        <ele>2100</ele>
        <time>2010-01-01T02:49:26Z</time>
      </trkpt>
      <trkpt lat="42.77172" lon="1.1243">
        <ele>2098</ele>
        <time>2010-01-01T02:49:36Z</time>
      </trkpt>
      <trkpt lat="42.77171" lon="1.12329">
        <ele>2104</ele>
        <time>2010-01-01T02:50:13Z</time>
      </trkpt>
      <trkpt lat="42.77177" lon="1.12298">
        <ele>2105</ele>
        <time>2010-01-01T02:50:25Z</time>
      </trkpt>
      <trkpt lat="42.77161" lon="1.12186">
        <ele>2109</ele>
        <time>2010-01-01T02:51:07Z</time>
      </trkpt>
      <trkpt lat="42.77067" lon="1.12079">
        <ele>2121</ele>
        <time>2010-01-01T02:52:08Z</time>
      </trkpt>
      <trkpt lat="42.77045" lon="1.12003">
        <ele>2125</ele>
        <time>2010-01-01T02:52:38Z</time>
      </trkpt>
      <trkpt lat="42.77026" lon="1.11982">
        <ele>2131</ele>
        <time>2010-01-01T02:52:51Z</time>
      </trkpt>
      <trkpt lat="42.77011" lon="1.11919">
        <ele>2133</ele>
        <time>2010-01-01T02:53:15Z</time>
      </trkpt>
      <trkpt lat="42.7701" lon="1.11893">
        <ele>2135</ele>
        <time>2010-01-01T02:53:24Z</time>
      </trkpt>
      <trkpt lat="42.76978" lon="1.11814">
        <ele>2145</ele>
        <time>2010-01-01T02:53:58Z</time>
      </trkpt>
      <trkpt lat="42.76959" lon="1.11789">
        <ele>2147</ele>
        <time>2010-01-01T02:54:11Z</time>
      </trkpt>
      <trkpt lat="42.76946" lon="1.11743">
        <ele>2151</ele>
        <time>2010-01-01T02:54:29Z</time>
      </trkpt>
      <trkpt lat="42.7694" lon="1.11686">
        <ele>2156</ele>
        <time>2010-01-01T02:54:50Z</time>
      </trkpt>
      <trkpt lat="42.76932" lon="1.1166">
        <ele>2157</ele>
        <time>2010-01-01T02:55:01Z</time>
      </trkpt>
      <trkpt lat="42.76917" lon="1.11638">
        <ele>2159</ele>
        <time>2010-01-01T02:55:12Z</time>
      </trkpt>
      <trkpt lat="42.7691" lon="1.11588">
        <ele>2159</ele>
        <time>2010-01-01T02:55:31Z</time>
      </trkpt>
      <trkpt lat="42.76905" lon="1.11583">
        <ele>2159</ele>
        <time>2010-01-01T02:55:33Z</time>
      </trkpt>
      <trkpt lat="42.76907" lon="1.11585">
        <ele>2159</ele>
        <time>2010-01-01T02:55:35Z</time>
      </trkpt>
      <trkpt lat="42.76895" lon="1.11576">
        <ele>2159</ele>
        <time>2010-01-01T02:55:42Z</time>
      </trkpt>
      <trkpt lat="42.76865" lon="1.11571">
        <ele>2159</ele>
        <time>2010-01-01T02:55:57Z</time>
      </trkpt>
      <trkpt lat="42.7684" lon="1.11579">
        <ele>2163</ele>
        <time>2010-01-01T02:56:10Z</time>
      </trkpt>
      <trkpt lat="42.76825" lon="1.11601">
        <ele>2165</ele>
        <time>2010-01-01T02:56:21Z</time>
      </trkpt>
      <trkpt lat="42.7681" lon="1.11611">
        <ele>2168</ele>
        <time>2010-01-01T02:56:29Z</time>
      </trkpt>
      <trkpt lat="42.76798" lon="1.11599">
        <ele>2172</ele>
        <time>2010-01-01T02:56:37Z</time>
      </trkpt>
      <trkpt lat="42.76792" lon="1.11544">
        <ele>2176</ele>
        <time>2010-01-01T02:56:57Z</time>
      </trkpt>
      <trkpt lat="42.76778" lon="1.11492">
        <ele>2182</ele>
        <time>2010-01-01T02:57:17Z</time>
      </trkpt>
      <trkpt lat="42.76777" lon="1.11463">
        <ele>2183</ele>
        <time>2010-01-01T02:57:28Z</time>
      </trkpt>
      <trkpt lat="42.76818" lon="1.11349">
        <ele>2189</ele>
        <time>2010-01-01T02:58:15Z</time>
      </trkpt>
      <trkpt lat="42.76817" lon="1.11289">
        <ele>2200</ele>
        <time>2010-01-01T02:58:37Z</time>
      </trkpt>
      <trkpt lat="42.76823" lon="1.11263">
        <ele>2204</ele>
        <time>2010-01-01T02:58:47Z</time>
      </trkpt>
      <trkpt lat="42.76839" lon="1.11241">
        <ele>2204</ele>
        <time>2010-01-01T02:58:58Z</time>
      </trkpt>
      <trkpt lat="42.76861" lon="1.11246">
        <ele>2201</ele>
        <time>2010-01-01T02:59:09Z</time>
      </trkpt>
      <trkpt lat="42.76881" lon="1.11263">
        <ele>2194</ele>
        <time>2010-01-01T02:59:21Z</time>
      </trkpt>
      <trkpt lat="42.76887" lon="1.11252">
        <ele>2195</ele>
        <time>2010-01-01T02:59:26Z</time>
      </trkpt>
      <trkpt lat="42.76878" lon="1.11225">
        <ele>2200</ele>
        <time>2010-01-01T02:59:37Z</time>
      </trkpt>
      <trkpt lat="42.76862" lon="1.11204">
        <ele>2204</ele>
        <time>2010-01-01T02:59:49Z</time>
      </trkpt>
      <trkpt lat="42.76828" lon="1.11185">
        <ele>2216</ele>
        <time>2010-01-01T03:00:07Z</time>
      </trkpt>
      <trkpt lat="42.76831" lon="1.11173">
        <ele>2218</ele>
        <time>2010-01-01T03:00:11Z</time>
      </trkpt>
      <trkpt lat="42.76855" lon="1.11174">
        <ele>2213</ele>
        <time>2010-01-01T03:00:23Z</time>
      </trkpt>
      <trkpt lat="42.76868" lon="1.1117">
        <ele>2212</ele>
        <time>2010-01-01T03:00:30Z</time>
      </trkpt>
      <trkpt lat="42.76869" lon="1.11124">
        <ele>2227</ele>
        <time>2010-01-01T03:00:47Z</time>
      </trkpt>
      <trkpt lat="42.76823" lon="1.11139">
        <ele>2226</ele>
        <time>2010-01-01T03:01:10Z</time>
      </trkpt>
      <trkpt lat="42.76802" lon="1.11142">
        <ele>2230</ele>
        <time>2010-01-01T03:01:21Z</time>
      </trkpt>
      <trkpt lat="42.76787" lon="1.11161">
        <ele>2235</ele>
        <time>2010-01-01T03:01:32Z</time>
      </trkpt>
      <trkpt lat="42.76766" lon="1.11215">
        <ele>2237</ele>
        <time>2010-01-01T03:01:54Z</time>
      </trkpt>
      <trkpt lat="42.7676" lon="1.11211">
        <ele>2241</ele>
        <time>2010-01-01T03:01:58Z</time>
      </trkpt>
      <trkpt lat="42.76805" lon="1.11029">
        <ele>2254</ele>
        <time>2010-01-01T03:03:08Z</time>
      </trkpt>
      <trkpt lat="42.768" lon="1.10937">
        <ele>2268</ele>
        <time>2010-01-01T03:03:42Z</time>
      </trkpt>
      <trkpt lat="42.76788" lon="1.10908">
        <ele>2265</ele>
        <time>2010-01-01T03:03:54Z</time>
      </trkpt>
      <trkpt lat="42.76802" lon="1.10945">
        <ele>2267</ele>
        <time>2010-01-01T03:04:10Z</time>
      </trkpt>
      <trkpt lat="42.7681" lon="1.1099">
        <ele>2262</ele>
        <time>2010-01-01T03:04:27Z</time>
      </trkpt>
      <trkpt lat="42.76833" lon="1.11032">
        <ele>2253</ele>
        <time>2010-01-01T03:04:46Z</time>
      </trkpt>
      <trkpt lat="42.76843" lon="1.111">
        <ele>2234</ele>
        <time>2010-01-01T03:05:11Z</time>
      </trkpt>
      <trkpt lat="42.7684" lon="1.11133">
        <ele>2226</ele>
        <time>2010-01-01T03:05:23Z</time>
      </trkpt>
      <trkpt lat="42.76854" lon="1.11186">
        <ele>2210</ele>
        <time>2010-01-01T03:05:44Z</time>
      </trkpt>
      <trkpt lat="42.7686" lon="1.11233">
        <ele>2202</ele>
        <time>2010-01-01T03:06:02Z</time>
      </trkpt>
      <trkpt lat="42.76857" lon="1.11269">
        <ele>2196</ele>
        <time>2010-01-01T03:06:15Z</time>
      </trkpt>
      <trkpt lat="42.76884" lon="1.1134">
        <ele>2179</ele>
        <time>2010-01-01T03:06:44Z</time>
      </trkpt>
      <trkpt lat="42.76891" lon="1.11513">
        <ele>2159</ele>
        <time>2010-01-01T03:07:48Z</time>
      </trkpt>
      <trkpt lat="42.76913" lon="1.11587">
        <ele>2159</ele>
        <time>2010-01-01T03:08:18Z</time>
      </trkpt>
      <trkpt lat="42.76913" lon="1.11601">
        <ele>2159</ele>
        <time>2010-01-01T03:08:23Z</time>
      </trkpt>
      <trkpt lat="42.76918" lon="1.11596">
        <ele>2160</ele>
        <time>2010-01-01T03:08:26Z</time>
      </trkpt>
      <trkpt lat="42.76915" lon="1.11589">
        <ele>2159</ele>
        <time>2010-01-01T03:08:29Z</time>
      </trkpt>
      <trkpt lat="42.76913" lon="1.11648">
        <ele>2156</ele>
        <time>2010-01-01T03:08:50Z</time>
      </trkpt>
      <trkpt lat="42.76931" lon="1.11703">
        <ele>2152</ele>
        <time>2010-01-01T03:09:13Z</time>
      </trkpt>
      <trkpt lat="42.7694" lon="1.11771">
        <ele>2147</ele>
        <time>2010-01-01T03:09:38Z</time>
      </trkpt>
      <trkpt lat="42.76953" lon="1.11805">
        <ele>2146</ele>
        <time>2010-01-01T03:09:52Z</time>
      </trkpt>
      <trkpt lat="42.76975" lon="1.11818">
        <ele>2145</ele>
        <time>2010-01-01T03:10:04Z</time>
      </trkpt>
      <trkpt lat="42.76992" lon="1.11839">
        <ele>2142</ele>
        <time>2010-01-01T03:10:16Z</time>
      </trkpt>
      <trkpt lat="42.77009" lon="1.11878">
        <ele>2137</ele>
        <time>2010-01-01T03:10:32Z</time>
      </trkpt>
      <trkpt lat="42.77028" lon="1.11977">
        <ele>2130</ele>
        <time>2010-01-01T03:11:10Z</time>
      </trkpt>
      <trkpt lat="42.7706" lon="1.12023">
        <ele>2122</ele>
        <time>2010-01-01T03:11:33Z</time>
      </trkpt>
      <trkpt lat="42.77064" lon="1.12041">
        <ele>2122</ele>
        <time>2010-01-01T03:11:40Z</time>
      </trkpt>
      <trkpt lat="42.77091" lon="1.12069">
        <ele>2117</ele>
        <time>2010-01-01T03:11:57Z</time>
      </trkpt>
      <trkpt lat="42.7714" lon="1.12095">
        <ele>2108</ele>
        <time>2010-01-01T03:12:23Z</time>
      </trkpt>
      <trkpt lat="42.77172" lon="1.12103">
        <ele>2102</ele>
        <time>2010-01-01T03:12:40Z</time>
      </trkpt>
      <trkpt lat="42.77225" lon="1.12101">
        <ele>2083</ele>
        <time>2010-01-01T03:13:06Z</time>
      </trkpt>
      <trkpt lat="42.77249" lon="1.12111">
        <ele>2064</ele>
        <time>2010-01-01T03:13:19Z</time>
      </trkpt>
      <trkpt lat="42.77265" lon="1.12138">
        <ele>2063</ele>
        <time>2010-01-01T03:13:31Z</time>
      </trkpt>
      <trkpt lat="42.77269" lon="1.12129">
        <ele>2061</ele>
        <time>2010-01-01T03:13:36Z</time>
      </trkpt>
      <trkpt lat="42.77277" lon="1.1213">
        <ele>2059</ele>
        <time>2010-01-01T03:13:40Z</time>
      </trkpt>
      <trkpt lat="42.77287" lon="1.12154">
        <ele>2056</ele>
        <time>2010-01-01T03:13:50Z</time>
      </trkpt>
      <trkpt lat="42.77294" lon="1.12153">
        <ele>2054</ele>
        <time>2010-01-01T03:13:53Z</time>
      </trkpt>
      <trkpt lat="42.77297" lon="1.12084">
        <ele>2050</ele>
        <time>2010-01-01T03:14:19Z</time>
      </trkpt>
      <trkpt lat="42.77306" lon="1.12076">
        <ele>2047</ele>
        <time>2010-01-01T03:14:24Z</time>
      </trkpt>
      <trkpt lat="42.77335" lon="1.12082">
        <ele>2042</ele>
        <time>2010-01-01T03:14:39Z</time>
      </trkpt>
      <trkpt lat="42.7737" lon="1.12117">
        <ele>2033</ele>
        <time>2010-01-01T03:15:01Z</time>
      </trkpt>
      <trkpt lat="42.77382" lon="1.12131">
        <ele>2029</ele>
        <time>2010-01-01T03:15:08Z</time>
      </trkpt>
      <trkpt lat="42.77379" lon="1.12117">
        <ele>2031</ele>
        <time>2010-01-01T03:15:13Z</time>
      </trkpt>
      <trkpt lat="42.77383" lon="1.12115">
        <ele>2030</ele>
        <time>2010-01-01T03:15:15Z</time>
      </trkpt>
      <trkpt lat="42.77408" lon="1.12136">
        <ele>2021</ele>
        <time>2010-01-01T03:15:30Z</time>
      </trkpt>
      <trkpt lat="42.7742" lon="1.12131">
        <ele>2017</ele>
        <time>2010-01-01T03:15:36Z</time>
      </trkpt>
      <trkpt lat="42.7743" lon="1.12135">
        <ele>2014</ele>
        <time>2010-01-01T03:15:41Z</time>
      </trkpt>
      <trkpt lat="42.77438" lon="1.12129">
        <ele>2010</ele>
        <time>2010-01-01T03:15:46Z</time>
      </trkpt>
      <trkpt lat="42.77444" lon="1.12131">
        <ele>2008</ele>
        <time>2010-01-01T03:15:49Z</time>
      </trkpt>
      <trkpt lat="42.77451" lon="1.12125">
        <ele>2006</ele>
        <time>2010-01-01T03:15:53Z</time>
      </trkpt>
      <trkpt lat="42.77486" lon="1.12116">
        <ele>2003</ele>
        <time>2010-01-01T03:16:11Z</time>
      </trkpt>
      <trkpt lat="42.7751" lon="1.121">
        <ele>2003</ele>
        <time>2010-01-01T03:16:24Z</time>
      </trkpt>
      <trkpt lat="42.77532" lon="1.12099">
        <ele>2005</ele>
        <time>2010-01-01T03:16:36Z</time>
      </trkpt>
      <trkpt lat="42.77536" lon="1.12036">
        <ele>1996</ele>
        <time>2010-01-01T03:16:59Z</time>
      </trkpt>
      <trkpt lat="42.77591" lon="1.118">
        <ele>1960</ele>
        <time>2010-01-01T03:18:30Z</time>
      </trkpt>
      <trkpt lat="42.77604" lon="1.1169">
        <ele>1949</ele>
        <time>2010-01-01T03:19:11Z</time>
      </trkpt>
      <trkpt lat="42.77619" lon="1.11663">
        <ele>1950</ele>
        <time>2010-01-01T03:19:23Z</time>
      </trkpt>
      <trkpt lat="42.77648" lon="1.11565">
        <ele>1938</ele>
        <time>2010-01-01T03:20:02Z</time>
      </trkpt>
      <trkpt lat="42.77647" lon="1.11566">
        <ele>1938</ele>
        <time>2010-01-01T03:20:03Z</time>
      </trkpt>
      <trkpt lat="42.77653" lon="1.1155">
        <ele>1938</ele>
        <time>2010-01-01T03:20:10Z</time>
      </trkpt>
      <trkpt lat="42.77655" lon="1.11502">
        <ele>1939</ele>
        <time>2010-01-01T03:20:27Z</time>
      </trkpt>
      <trkpt lat="42.77673" lon="1.1144">
        <ele>1913</ele>
        <time>2010-01-01T03:20:52Z</time>
      </trkpt>
      <trkpt lat="42.77668" lon="1.11418">
        <ele>1915</ele>
        <time>2010-01-01T03:21:00Z</time>
      </trkpt>
      <trkpt lat="42.77674" lon="1.11353">
        <ele>1902</ele>
        <time>2010-01-01T03:21:24Z</time>
      </trkpt>
      <trkpt lat="42.77658" lon="1.11314">
        <ele>1899</ele>
        <time>2010-01-01T03:21:41Z</time>
      </trkpt>
      <trkpt lat="42.7765" lon="1.1122">
        <ele>1887</ele>
        <time>2010-01-01T03:22:16Z</time>
      </trkpt>
      <trkpt lat="42.77654" lon="1.11195">
        <ele>1877</ele>
        <time>2010-01-01T03:22:25Z</time>
      </trkpt>
      <trkpt lat="42.77676" lon="1.1115">
        <ele>1864</ele>
        <time>2010-01-01T03:22:45Z</time>
      </trkpt>
      <trkpt lat="42.77687" lon="1.11228">
        <ele>1858</ele>
        <time>2010-01-01T03:23:14Z</time>
      </trkpt>
      <trkpt lat="42.77701" lon="1.11208">
        <ele>1845</ele>
        <time>2010-01-01T03:23:24Z</time>
      </trkpt>
      <trkpt lat="42.77706" lon="1.11223">
        <ele>1844</ele>
        <time>2010-01-01T03:23:30Z</time>
      </trkpt>
      <trkpt lat="42.77716" lon="1.11225">
        <ele>1839</ele>
        <time>2010-01-01T03:23:35Z</time>
      </trkpt>
      <trkpt lat="42.77726" lon="1.11192">
        <ele>1829</ele>
        <time>2010-01-01T03:23:48Z</time>
      </trkpt>
      <trkpt lat="42.77729" lon="1.11098">
        <ele>1789</ele>
        <time>2010-01-01T03:24:23Z</time>
      </trkpt>
      <trkpt lat="42.77737" lon="1.11038">
        <ele>1775</ele>
        <time>2010-01-01T03:24:45Z</time>
      </trkpt>
      <trkpt lat="42.77758" lon="1.11058">
        <ele>1773</ele>
        <time>2010-01-01T03:24:58Z</time>
      </trkpt>
      <trkpt lat="42.77768" lon="1.11099">
        <ele>1784</ele>
        <time>2010-01-01T03:25:13Z</time>
      </trkpt>
      <trkpt lat="42.77775" lon="1.11038">
        <ele>1776</ele>
        <time>2010-01-01T03:25:36Z</time>
      </trkpt>
      <trkpt lat="42.77792" lon="1.11096">
        <ele>1768</ele>
        <time>2010-01-01T03:25:59Z</time>
      </trkpt>
      <trkpt lat="42.77803" lon="1.11045">
        <ele>1761</ele>
        <time>2010-01-01T03:26:19Z</time>
      </trkpt>
      <trkpt lat="42.77809" lon="1.11041">
        <ele>1758</ele>
        <time>2010-01-01T03:26:22Z</time>
      </trkpt>
      <trkpt lat="42.77827" lon="1.11092">
        <ele>1749</ele>
        <time>2010-01-01T03:26:43Z</time>
      </trkpt>
      <trkpt lat="42.77836" lon="1.11013">
        <ele>1731</ele>
        <time>2010-01-01T03:27:12Z</time>
      </trkpt>
      <trkpt lat="42.77869" lon="1.1109">
        <ele>1723</ele>
        <time>2010-01-01T03:27:45Z</time>
      </trkpt>
      <trkpt lat="42.77884" lon="1.10991">
        <ele>1700</ele>
        <time>2010-01-01T03:28:22Z</time>
      </trkpt>
      <trkpt lat="42.7791" lon="1.11054">
        <ele>1697</ele>
        <time>2010-01-01T03:28:49Z</time>
      </trkpt>
      <trkpt lat="42.77934" lon="1.11092">
        <ele>1694</ele>
        <time>2010-01-01T03:29:07Z</time>
      </trkpt>
      <trkpt lat="42.7793" lon="1.11088">
        <ele>1695</ele>
        <time>2010-01-01T03:29:10Z</time>
      </trkpt>
      <trkpt lat="42.77944" lon="1.10981">
        <ele>1666</ele>
        <time>2010-01-01T03:29:49Z</time>
      </trkpt>
      <trkpt lat="42.77952" lon="1.10987">
        <ele>1662</ele>
        <time>2010-01-01T03:29:54Z</time>
      </trkpt>
      <trkpt lat="42.77986" lon="1.11049">
        <ele>1658</ele>
        <time>2010-01-01T03:30:22Z</time>
      </trkpt>
      <trkpt lat="42.77996" lon="1.11058">
        <ele>1656</ele>
        <time>2010-01-01T03:30:28Z</time>
      </trkpt>
      <trkpt lat="42.78001" lon="1.10948">
        <ele>1632</ele>
        <time>2010-01-01T03:31:09Z</time>
      </trkpt>
      <trkpt lat="42.78028" lon="1.10895">
        <ele>1622</ele>
        <time>2010-01-01T03:31:32Z</time>
      </trkpt>
      <trkpt lat="42.78042" lon="1.10896">
        <ele>1616</ele>
        <time>2010-01-01T03:31:40Z</time>
      </trkpt>
      <trkpt lat="42.78047" lon="1.10959">
        <ele>1613</ele>
        <time>2010-01-01T03:32:03Z</time>
      </trkpt>
      <trkpt lat="42.78059" lon="1.10978">
        <ele>1609</ele>
        <time>2010-01-01T03:32:12Z</time>
      </trkpt>
      <trkpt lat="42.78076" lon="1.10988">
        <ele>1604</ele>
        <time>2010-01-01T03:32:21Z</time>
      </trkpt>
      <trkpt lat="42.78085" lon="1.1094">
        <ele>1597</ele>
        <time>2010-01-01T03:32:40Z</time>
      </trkpt>
      <trkpt lat="42.78119" lon="1.10869">
        <ele>1586</ele>
        <time>2010-01-01T03:33:10Z</time>
      </trkpt>
      <trkpt lat="42.78136" lon="1.10851">
        <ele>1579</ele>
        <time>2010-01-01T03:33:21Z</time>
      </trkpt>
      <trkpt lat="42.78205" lon="1.1083">
        <ele>1567</ele>
        <time>2010-01-01T03:33:57Z</time>
      </trkpt>
      <trkpt lat="42.78242" lon="1.10831">
        <ele>1562</ele>
        <time>2010-01-01T03:34:15Z</time>
      </trkpt>
      <trkpt lat="42.78368" lon="1.10788">
        <ele>1551</ele>
        <time>2010-01-01T03:35:20Z</time>
      </trkpt>
      <trkpt lat="42.78407" lon="1.10795">
        <ele>1546</ele>
        <time>2010-01-01T03:35:40Z</time>
      </trkpt>
      <trkpt lat="42.78398" lon="1.10791">
        <ele>1547</ele>
        <time>2010-01-01T03:35:45Z</time>
      </trkpt>
      <trkpt lat="42.78391" lon="1.10779">
        <ele>1548</ele>
        <time>2010-01-01T03:35:50Z</time>
      </trkpt>
      <trkpt lat="42.78392" lon="1.10762">
        <ele>1549</ele>
        <time>2010-01-01T03:35:56Z</time>
      </trkpt>
      <trkpt lat="42.78385" lon="1.10751">
        <ele>1550</ele>
        <time>2010-01-01T03:36:02Z</time>
      </trkpt>
      <trkpt lat="42.78374" lon="1.10748">
        <ele>1551</ele>
        <time>2010-01-01T03:36:07Z</time>
      </trkpt>
      <trkpt lat="42.78377" lon="1.10776">
        <ele>1550</ele>
        <time>2010-01-01T03:36:17Z</time>
      </trkpt>
      <trkpt lat="42.78384" lon="1.10776">
        <ele>1549</ele>
        <time>2010-01-01T03:36:21Z</time>
      </trkpt>
      <trkpt lat="42.78381" lon="1.10787">
        <ele>1549</ele>
        <time>2010-01-01T03:36:25Z</time>
      </trkpt>
      <trkpt lat="42.78413" lon="1.10786">
        <ele>1545</ele>
        <time>2010-01-01T03:36:41Z</time>
      </trkpt>
      <trkpt lat="42.7838" lon="1.10784">
        <ele>1549</ele>
        <time>2010-01-01T03:36:58Z</time>
      </trkpt>
      <trkpt lat="42.78407" lon="1.10786">
        <ele>1546</ele>
        <time>2010-01-01T03:37:11Z</time>
      </trkpt>
      <trkpt lat="42.78399" lon="1.10789">
        <ele>1547</ele>
        <time>2010-01-01T03:37:16Z</time>
      </trkpt>
      <trkpt lat="42.7841" lon="1.10816">
        <ele>1545</ele>
        <time>2010-01-01T03:37:27Z</time>
      </trkpt>
      <trkpt lat="42.78421" lon="1.10826">
        <ele>1543</ele>
        <time>2010-01-01T03:37:34Z</time>
      </trkpt>
      <trkpt lat="42.78468" lon="1.1083">
        <ele>1538</ele>
        <time>2010-01-01T03:37:58Z</time>
      </trkpt>
      <trkpt lat="42.78492" lon="1.10838">
        <ele>1535</ele>
        <time>2010-01-01T03:38:10Z</time>
      </trkpt>
      <trkpt lat="42.78532" lon="1.10837">
        <ele>1527</ele>
        <time>2010-01-01T03:38:30Z</time>
      </trkpt>
      <trkpt lat="42.78559" lon="1.10845">
        <ele>1523</ele>
        <time>2010-01-01T03:38:44Z</time>
      </trkpt>
      <trkpt lat="42.78582" lon="1.10841">
        <ele>1521</ele>
        <time>2010-01-01T03:38:55Z</time>
      </trkpt>
      <trkpt lat="42.78611" lon="1.10859">
        <ele>1517</ele>
        <time>2010-01-01T03:39:12Z</time>
      </trkpt>
      <trkpt lat="42.78635" lon="1.10887">
        <ele>1518</ele>
        <time>2010-01-01T03:39:27Z</time>
      </trkpt>
      <trkpt lat="42.78653" lon="1.10886">
        <ele>1514</ele>
        <time>2010-01-01T03:39:36Z</time>
      </trkpt>
      <trkpt lat="42.78673" lon="1.10846">
        <ele>1508</ele>
        <time>2010-01-01T03:39:54Z</time>
      </trkpt>
      <trkpt lat="42.78692" lon="1.10823">
        <ele>1505</ele>
        <time>2010-01-01T03:40:07Z</time>
      </trkpt>
      <trkpt lat="42.78686" lon="1.10877">
        <ele>1502</ele>
        <time>2010-01-01T03:40:27Z</time>
      </trkpt>
      <trkpt lat="42.78688" lon="1.10895">
        <ele>1499</ele>
        <time>2010-01-01T03:40:34Z</time>
      </trkpt>
      <trkpt lat="42.78722" lon="1.10832">
        <ele>1486</ele>
        <time>2010-01-01T03:41:02Z</time>
      </trkpt>
      <trkpt lat="42.78728" lon="1.10836">
        <ele>1481</ele>
        <time>2010-01-01T03:41:05Z</time>
      </trkpt>
      <trkpt lat="42.78728" lon="1.10865">
        <ele>1475</ele>
        <time>2010-01-01T03:41:16Z</time>
      </trkpt>
      <trkpt lat="42.78777" lon="1.10798">
        <ele>1464</ele>
        <time>2010-01-01T03:41:51Z</time>
      </trkpt>
      <trkpt lat="42.7877" lon="1.10789">
        <ele>1470</ele>
        <time>2010-01-01T03:41:55Z</time>
      </trkpt>
      <trkpt lat="42.78807" lon="1.10785">
        <ele>1463</ele>
        <time>2010-01-01T03:42:13Z</time>
      </trkpt>
      <trkpt lat="42.7885" lon="1.10781">
        <ele>1458</ele>
        <time>2010-01-01T03:42:35Z</time>
      </trkpt>
      <trkpt lat="42.7888" lon="1.10773">
        <ele>1456</ele>
        <time>2010-01-01T03:42:50Z</time>
      </trkpt>
      <trkpt lat="42.78895" lon="1.10775">
        <ele>1451</ele>
        <time>2010-01-01T03:42:58Z</time>
      </trkpt>
      <trkpt lat="42.78881" lon="1.10805">
        <ele>1439</ele>
        <time>2010-01-01T03:43:11Z</time>
      </trkpt>
      <trkpt lat="42.78908" lon="1.10791">
        <ele>1440</ele>
        <time>2010-01-01T03:43:26Z</time>
      </trkpt>
      <trkpt lat="42.78928" lon="1.10771">
        <ele>1444</ele>
        <time>2010-01-01T03:43:38Z</time>
      </trkpt>
      <trkpt lat="42.78976" lon="1.1079">
        <ele>1420</ele>
        <time>2010-01-01T03:44:03Z</time>
      </trkpt>
      <trkpt lat="42.78946" lon="1.10812">
        <ele>1420</ele>
        <time>2010-01-01T03:44:20Z</time>
      </trkpt>
      <trkpt lat="42.78917" lon="1.10861">
        <ele>1407</ele>
        <time>2010-01-01T03:44:43Z</time>
      </trkpt>
      <trkpt lat="42.78896" lon="1.10867">
        <ele>1410</ele>
        <time>2010-01-01T03:44:53Z</time>
      </trkpt>
      <trkpt lat="42.78901" lon="1.10877">
        <ele>1403</ele>
        <time>2010-01-01T03:44:58Z</time>
      </trkpt>
      <trkpt lat="42.78884" lon="1.10892">
        <ele>1403</ele>
        <time>2010-01-01T03:45:08Z</time>
      </trkpt>
      <trkpt lat="42.78893" lon="1.10914">
        <ele>1387</ele>
        <time>2010-01-01T03:45:17Z</time>
      </trkpt>
      <trkpt lat="42.78908" lon="1.10912">
        <ele>1382</ele>
        <time>2010-01-01T03:45:24Z</time>
      </trkpt>
      <trkpt lat="42.78901" lon="1.10925">
        <ele>1377</ele>
        <time>2010-01-01T03:45:30Z</time>
      </trkpt>
      <trkpt lat="42.78963" lon="1.10904">
        <ele>1371</ele>
        <time>2010-01-01T03:46:02Z</time>
      </trkpt>
      <trkpt lat="42.78983" lon="1.10889">
        <ele>1372</ele>
        <time>2010-01-01T03:46:13Z</time>
      </trkpt>
      <trkpt lat="42.78978" lon="1.10917">
        <ele>1358</ele>
        <time>2010-01-01T03:46:24Z</time>
      </trkpt>
      <trkpt lat="42.78946" lon="1.10953">
        <ele>1350</ele>
        <time>2010-01-01T03:46:45Z</time>
      </trkpt>
      <trkpt lat="42.78913" lon="1.10974">
        <ele>1346</ele>
        <time>2010-01-01T03:47:03Z</time>
      </trkpt>
      <trkpt lat="42.78947" lon="1.1098">
        <ele>1334</ele>
        <time>2010-01-01T03:47:20Z</time>
      </trkpt>
      <trkpt lat="42.78972" lon="1.10959">
        <ele>1338</ele>
        <time>2010-01-01T03:47:35Z</time>
      </trkpt>
      <trkpt lat="42.78989" lon="1.10963">
        <ele>1329</ele>
        <time>2010-01-01T03:47:43Z</time>
      </trkpt>
      <trkpt lat="42.78975" lon="1.11007">
        <ele>1314</ele>
        <time>2010-01-01T03:48:01Z</time>
      </trkpt>
      <trkpt lat="42.78937" lon="1.11038">
        <ele>1309</ele>
        <time>2010-01-01T03:48:23Z</time>
      </trkpt>
      <trkpt lat="42.78911" lon="1.11044">
        <ele>1314</ele>
        <time>2010-01-01T03:48:36Z</time>
      </trkpt>
      <trkpt lat="42.78913" lon="1.11049">
        <ele>1312</ele>
        <time>2010-01-01T03:48:38Z</time>
      </trkpt>
      <trkpt lat="42.78943" lon="1.11051">
        <ele>1302</ele>
        <time>2010-01-01T03:48:53Z</time>
      </trkpt>
      <trkpt lat="42.78969" lon="1.11059">
        <ele>1294</ele>
        <time>2010-01-01T03:49:06Z</time>
      </trkpt>
      <trkpt lat="42.78991" lon="1.11052">
        <ele>1294</ele>
        <time>2010-01-01T03:49:18Z</time>
      </trkpt>
      <trkpt lat="42.79001" lon="1.11038">
        <ele>1297</ele>
        <time>2010-01-01T03:49:25Z</time>
      </trkpt>
      <trkpt lat="42.79017" lon="1.11051">
        <ele>1284</ele>
        <time>2010-01-01T03:49:34Z</time>
      </trkpt>
      <trkpt lat="42.78998" lon="1.11075">
        <ele>1281</ele>
        <time>2010-01-01T03:49:47Z</time>
      </trkpt>
      <trkpt lat="42.78948" lon="1.11108">
        <ele>1276</ele>
        <time>2010-01-01T03:50:15Z</time>
      </trkpt>
      <trkpt lat="42.78945" lon="1.11149">
        <ele>1270</ele>
        <time>2010-01-01T03:50:30Z</time>
      </trkpt>
      <trkpt lat="42.78955" lon="1.11179">
        <ele>1263</ele>
        <time>2010-01-01T03:50:42Z</time>
      </trkpt>
      <trkpt lat="42.7894" lon="1.11153">
        <ele>1274</ele>
        <time>2010-01-01T03:50:54Z</time>
      </trkpt>
      <trkpt lat="42.78945" lon="1.11189">
        <ele>1272</ele>
        <time>2010-01-01T03:51:07Z</time>
      </trkpt>
      <trkpt lat="42.78955" lon="1.11205">
        <ele>1262</ele>
        <time>2010-01-01T03:51:15Z</time>
      </trkpt>
      <trkpt lat="42.78955" lon="1.11223">
        <ele>1261</ele>
        <time>2010-01-01T03:51:22Z</time>
      </trkpt>
      <trkpt lat="42.78961" lon="1.11206">
        <ele>1256</ele>
        <time>2010-01-01T03:51:29Z</time>
      </trkpt>
      <trkpt lat="42.78961" lon="1.1127">
        <ele>1251</ele>
        <time>2010-01-01T03:51:52Z</time>
      </trkpt>
      <trkpt lat="42.78983" lon="1.1121">
        <ele>1240</ele>
        <time>2010-01-01T03:52:17Z</time>
      </trkpt>
      <trkpt lat="42.78993" lon="1.11242">
        <ele>1231</ele>
        <time>2010-01-01T03:52:29Z</time>
      </trkpt>
      <trkpt lat="42.78992" lon="1.1127">
        <ele>1230</ele>
        <time>2010-01-01T03:52:40Z</time>
      </trkpt>
      <trkpt lat="42.79007" lon="1.11299">
        <ele>1227</ele>
        <time>2010-01-01T03:52:53Z</time>
      </trkpt>
      <trkpt lat="42.79014" lon="1.11297">
        <ele>1224</ele>
        <time>2010-01-01T03:52:57Z</time>
      </trkpt>
      <trkpt lat="42.79026" lon="1.11242">
        <ele>1219</ele>
        <time>2010-01-01T03:53:18Z</time>
      </trkpt>
      <trkpt lat="42.79034" lon="1.11293">
        <ele>1216</ele>
        <time>2010-01-01T03:53:37Z</time>
      </trkpt>
      <trkpt lat="42.79049" lon="1.11321">
        <ele>1212</ele>
        <time>2010-01-01T03:53:50Z</time>
      </trkpt>
      <trkpt lat="42.79048" lon="1.11334">
        <ele>1215</ele>
        <time>2010-01-01T03:53:55Z</time>
      </trkpt>
      <trkpt lat="42.7907" lon="1.11354">
        <ele>1206</ele>
        <time>2010-01-01T03:54:08Z</time>
      </trkpt>
      <trkpt lat="42.79096" lon="1.11405">
        <ele>1194</ele>
        <time>2010-01-01T03:54:30Z</time>
      </trkpt>
      <trkpt lat="42.79098" lon="1.11422">
        <ele>1194</ele>
        <time>2010-01-01T03:54:37Z</time>
      </trkpt>
      <trkpt lat="42.79111" lon="1.11439">
        <ele>1190</ele>
        <time>2010-01-01T03:54:46Z</time>
      </trkpt>
      <trkpt lat="42.79228" lon="1.1152">
        <ele>1158</ele>
        <time>2010-01-01T03:55:51Z</time>
      </trkpt>
      <trkpt lat="42.7924" lon="1.11538">
        <ele>1156</ele>
        <time>2010-01-01T03:56:00Z</time>
      </trkpt>
      <trkpt lat="42.79277" lon="1.11558">
        <ele>1142</ele>
        <time>2010-01-01T03:56:20Z</time>
      </trkpt>
      <trkpt lat="42.79289" lon="1.11563">
        <ele>1140</ele>
        <time>2010-01-01T03:56:26Z</time>
      </trkpt>
      <trkpt lat="42.79339" lon="1.1161">
        <ele>1138</ele>
        <time>2010-01-01T03:56:57Z</time>
      </trkpt>
      <trkpt lat="42.79361" lon="1.11624">
        <ele>1136</ele>
        <time>2010-01-01T03:57:09Z</time>
      </trkpt>
      <trkpt lat="42.79421" lon="1.11639">
        <ele>1128</ele>
        <time>2010-01-01T03:57:39Z</time>
      </trkpt>
      <trkpt lat="42.79501" lon="1.11761">
        <ele>1120</ele>
        <time>2010-01-01T03:58:40Z</time>
      </trkpt>
      <trkpt lat="42.79566" lon="1.11853">
        <ele>1105</ele>
        <time>2010-01-01T03:59:26Z</time>
      </trkpt>
      <trkpt lat="42.79649" lon="1.11911">
        <ele>1081</ele>
        <time>2010-01-01T04:00:13Z</time>
      </trkpt>
      <trkpt lat="42.79646" lon="1.11932">
        <ele>1090</ele>
        <time>2010-01-01T04:00:21Z</time>
      </trkpt>
      <trkpt lat="42.79678" lon="1.11977">
        <ele>1083</ele>
        <time>2010-01-01T04:00:43Z</time>
      </trkpt>
      <trkpt lat="42.79721" lon="1.12012">
        <ele>1071</ele>
        <time>2010-01-01T04:01:09Z</time>
      </trkpt>
      <trkpt lat="42.79799" lon="1.12017">
        <ele>1059</ele>
        <time>2010-01-01T04:01:48Z</time>
      </trkpt>
      <trkpt lat="42.79823" lon="1.1201">
        <ele>1057</ele>
        <time>2010-01-01T04:02:00Z</time>
      </trkpt>
      <trkpt lat="42.79862" lon="1.12046">
        <ele>1057</ele>
        <time>2010-01-01T04:02:24Z</time>
      </trkpt>
      <trkpt lat="42.79896" lon="1.12157">
        <ele>1044</ele>
        <time>2010-01-01T04:03:08Z</time>
      </trkpt>
      <trkpt lat="42.79903" lon="1.12284">
        <ele>1052</ele>
        <time>2010-01-01T04:03:55Z</time>
      </trkpt>
      <trkpt lat="42.79931" lon="1.12292">
        <ele>1042</ele>
        <time>2010-01-01T04:04:09Z</time>
      </trkpt>
      <trkpt lat="42.79949" lon="1.1233">
        <ele>1039</ele>
        <time>2010-01-01T04:04:26Z</time>
      </trkpt>
      <trkpt lat="42.80025" lon="1.12404">
        <ele>1027</ele>
        <time>2010-01-01T04:05:12Z</time>
      </trkpt>
      <trkpt lat="42.80029" lon="1.12389">
        <ele>1028</ele>
        <time>2010-01-01T04:05:18Z</time>
      </trkpt>
      <trkpt lat="42.80051" lon="1.12405">
        <ele>1021</ele>
        <time>2010-01-01T04:05:31Z</time>
      </trkpt>
      <trkpt lat="42.80066" lon="1.12404">
        <ele>1021</ele>
        <time>2010-01-01T04:05:38Z</time>
      </trkpt>
      <trkpt lat="42.80097" lon="1.12428">
        <ele>1021</ele>
        <time>2010-01-01T04:05:56Z</time>
      </trkpt>
      <trkpt lat="42.80121" lon="1.12437">
        <ele>1028</ele>
        <time>2010-01-01T04:06:08Z</time>
      </trkpt>
      <trkpt lat="42.80136" lon="1.12482">
        <ele>1021</ele>
        <time>2010-01-01T04:06:26Z</time>
      </trkpt>
      <trkpt lat="42.80177" lon="1.12534">
        <ele>1029</ele>
        <time>2010-01-01T04:06:55Z</time>
      </trkpt>
      <trkpt lat="42.80185" lon="1.12572">
        <ele>1022</ele>
        <time>2010-01-01T04:07:09Z</time>
      </trkpt>
      <trkpt lat="42.80186" lon="1.12571">
        <ele>1023</ele>
        <time>2010-01-01T04:07:10Z</time>
      </trkpt>
      <trkpt lat="42.80253" lon="1.12672">
        <ele>1019</ele>
        <time>2010-01-01T04:08:00Z</time>
      </trkpt>
      <trkpt lat="42.80273" lon="1.12737">
        <ele>1009</ele>
        <time>2010-01-01T04:08:26Z</time>
      </trkpt>
      <trkpt lat="42.80293" lon="1.12773">
        <ele>1019</ele>
        <time>2010-01-01T04:08:42Z</time>
      </trkpt>
      <trkpt lat="42.80273" lon="1.12824">
        <ele>1009</ele>
        <time>2010-01-01T04:09:03Z</time>
      </trkpt>
      <trkpt lat="42.80278" lon="1.12813">
        <ele>1009</ele>
        <time>2010-01-01T04:09:08Z</time>
      </trkpt>
      <trkpt lat="42.80264" lon="1.12821">
        <ele>1014</ele>
        <time>2010-01-01T04:09:16Z</time>
      </trkpt>
      <trkpt lat="42.80274" lon="1.12831">
        <ele>1009</ele>
        <time>2010-01-01T04:09:22Z</time>
      </trkpt>
      <trkpt lat="42.80284" lon="1.12858">
        <ele>1007</ele>
        <time>2010-01-01T04:09:33Z</time>
      </trkpt>
      <trkpt lat="42.80301" lon="1.13">
        <ele>990</ele>
        <time>2010-01-01T04:10:26Z</time>
      </trkpt>
      <trkpt lat="42.8024" lon="1.13096">
        <ele>994</ele>
        <time>2010-01-01T04:11:13Z</time>
      </trkpt>
      <trkpt lat="42.80232" lon="1.13139">
        <ele>985</ele>
        <time>2010-01-01T04:11:29Z</time>
      </trkpt>
      <trkpt lat="42.80224" lon="1.13259">
        <ele>969</ele>
        <time>2010-01-01T04:12:13Z</time>
      </trkpt>
      <trkpt lat="42.80238" lon="1.1329">
        <ele>961</ele>
        <time>2010-01-01T04:12:26Z</time>
      </trkpt>
      <trkpt lat="42.80244" lon="1.13348">
        <ele>951</ele>
        <time>2010-01-01T04:12:48Z</time>
      </trkpt>
      <trkpt lat="42.80267" lon="1.13376">
        <ele>943</ele>
        <time>2010-01-01T04:13:03Z</time>
      </trkpt>
      <trkpt lat="42.8026" lon="1.13402">
        <ele>942</ele>
        <time>2010-01-01T04:13:14Z</time>
      </trkpt>
      <trkpt lat="42.80275" lon="1.13411">
        <ele>941</ele>
        <time>2010-01-01T04:13:22Z</time>
      </trkpt>
      <trkpt lat="42.80284" lon="1.13451">
        <ele>939</ele>
        <time>2010-01-01T04:13:37Z</time>
      </trkpt>
      <trkpt lat="42.80286" lon="1.13497">
        <ele>940</ele>
        <time>2010-01-01T04:13:55Z</time>
      </trkpt>
      <trkpt lat="42.80301" lon="1.13523">
        <ele>936</ele>
        <time>2010-01-01T04:14:07Z</time>
      </trkpt>
      <trkpt lat="42.80315" lon="1.13526">
        <ele>934</ele>
        <time>2010-01-01T04:14:14Z</time>
      </trkpt>
      <trkpt lat="42.80366" lon="1.13654">
        <ele>930</ele>
        <time>2010-01-01T04:15:07Z</time>
      </trkpt>
      <trkpt lat="42.80377" lon="1.13705">
        <ele>932</ele>
        <time>2010-01-01T04:15:27Z</time>
      </trkpt>
      <trkpt lat="42.80419" lon="1.13767">
        <ele>932</ele>
        <time>2010-01-01T04:15:58Z</time>
      </trkpt>
      <trkpt lat="42.80441" lon="1.13793">
        <ele>937</ele>
        <time>2010-01-01T04:16:12Z</time>
      </trkpt>
      <trkpt lat="42.80452" lon="1.13835">
        <ele>930</ele>
        <time>2010-01-01T04:16:29Z</time>
      </trkpt>
      <trkpt lat="42.8049" lon="1.13926">
        <ele>918</ele>
        <time>2010-01-01T04:17:07Z</time>
      </trkpt>
      <trkpt lat="42.80597" lon="1.14012">
        <ele>910</ele>
        <time>2010-01-01T04:18:09Z</time>
      </trkpt>
      <trkpt lat="42.8073" lon="1.14076">
        <ele>894</ele>
        <time>2010-01-01T04:19:20Z</time>
      </trkpt>
      <trkpt lat="42.80902" lon="1.14179">
        <ele>861</ele>
        <time>2010-01-01T04:20:54Z</time>
      </trkpt>
      <trkpt lat="42.80954" lon="1.14209">
        <ele>866</ele>
        <time>2010-01-01T04:21:22Z</time>
      </trkpt>
      <trkpt lat="42.81152" lon="1.14275">
        <ele>822</ele>
        <time>2010-01-01T04:23:04Z</time>
      </trkpt>
      <trkpt lat="42.81368" lon="1.14347">
        <ele>803</ele>
        <time>2010-01-01T04:24:56Z</time>
      </trkpt>
      <trkpt lat="42.81468" lon="1.14384">
        <ele>792</ele>
        <time>2010-01-01T04:25:47Z</time>
      </trkpt>
      <trkpt lat="42.81606" lon="1.14488">
        <ele>798</ele>
        <time>2010-01-01T04:27:06Z</time>
      </trkpt>
      <trkpt lat="42.81682" lon="1.14502">
        <ele>799</ele>
        <time>2010-01-01T04:27:45Z</time>
      </trkpt>
      <trkpt lat="42.81712" lon="1.14517">
        <ele>797</ele>
        <time>2010-01-01T04:28:00Z</time>
      </trkpt>
      <trkpt lat="42.81796" lon="1.14619">
        <ele>798</ele>
        <time>2010-01-01T04:28:57Z</time>
      </trkpt>
      <trkpt lat="42.81922" lon="1.14714">
        <ele>796</ele>
        <time>2010-01-01T04:30:09Z</time>
      </trkpt>
      <trkpt lat="42.81949" lon="1.14723">
        <ele>794</ele>
        <time>2010-01-01T04:30:23Z</time>
      </trkpt>
      <trkpt lat="42.81973" lon="1.14723">
        <ele>791</ele>
        <time>2010-01-01T04:30:35Z</time>
      </trkpt>
      <trkpt lat="42.82071" lon="1.14753">
        <ele>796</ele>
        <time>2010-01-01T04:31:25Z</time>
      </trkpt>
      <trkpt lat="42.8214" lon="1.1471">
        <ele>772</ele>
        <time>2010-01-01T04:32:03Z</time>
      </trkpt>
      <trkpt lat="42.82159" lon="1.14704">
        <ele>765</ele>
        <time>2010-01-01T04:32:13Z</time>
      </trkpt>
      <trkpt lat="42.822" lon="1.14719">
        <ele>766</ele>
        <time>2010-01-01T04:32:34Z</time>
      </trkpt>
      <trkpt lat="42.82215" lon="1.14719">
        <ele>762</ele>
        <time>2010-01-01T04:32:41Z</time>
      </trkpt>
      <trkpt lat="42.82243" lon="1.14731">
        <ele>756</ele>
        <time>2010-01-01T04:32:56Z</time>
      </trkpt>
      <trkpt lat="42.82243" lon="1.14739">
        <ele>759</ele>
        <time>2010-01-01T04:32:59Z</time>
      </trkpt>
      <trkpt lat="42.82237" lon="1.14731">
        <ele>758</ele>
        <time>2010-01-01T04:33:03Z</time>
      </trkpt>
      <trkpt lat="42.82246" lon="1.1473">
        <ele>754</ele>
        <time>2010-01-01T04:33:08Z</time>
      </trkpt>
      <trkpt lat="42.8223" lon="1.14733">
        <ele>762</ele>
        <time>2010-01-01T04:33:16Z</time>
      </trkpt>
      <trkpt lat="42.82237" lon="1.14745">
        <ele>764</ele>
        <time>2010-01-01T04:33:21Z</time>
      </trkpt>
      <trkpt lat="42.82222" lon="1.14727">
        <ele>763</ele>
        <time>2010-01-01T04:33:31Z</time>
      </trkpt>
      <trkpt lat="42.8222" lon="1.14729">
        <ele>764</ele>
        <time>2010-01-01T04:33:32Z</time>
      </trkpt>
      <trkpt lat="42.82245" lon="1.14742">
        <ele>759</ele>
        <time>2010-01-01T04:33:46Z</time>
      </trkpt>
      <trkpt lat="42.82254" lon="1.14739">
        <ele>755</ele>
        <time>2010-01-01T04:33:50Z</time>
      </trkpt>
      <trkpt lat="42.8236" lon="1.14916">
        <ele>743</ele>
        <time>2010-01-01T04:35:14Z</time>
      </trkpt>
      <trkpt lat="42.82404" lon="1.14944">
        <ele>730</ele>
        <time>2010-01-01T04:35:39Z</time>
      </trkpt>
      <trkpt lat="42.82443" lon="1.14983">
        <ele>729</ele>
        <time>2010-01-01T04:36:03Z</time>
      </trkpt>
      <trkpt lat="42.82449" lon="1.15009">
        <ele>739</ele>
        <time>2010-01-01T04:36:13Z</time>
      </trkpt>
      <trkpt lat="42.82519" lon="1.15026">
        <ele>701</ele>
        <time>2010-01-01T04:36:49Z</time>
      </trkpt>
      <trkpt lat="42.82573" lon="1.15083">
        <ele>711</ele>
        <time>2010-01-01T04:37:23Z</time>
      </trkpt>
      <trkpt lat="42.82637" lon="1.15169">
        <ele>695</ele>
        <time>2010-01-01T04:38:08Z</time>
      </trkpt>
      <trkpt lat="42.82675" lon="1.15235">
        <ele>697</ele>
        <time>2010-01-01T04:38:38Z</time>
      </trkpt>
      <trkpt lat="42.82686" lon="1.15234">
        <ele>698</ele>
        <time>2010-01-01T04:38:44Z</time>
      </trkpt>
      <trkpt lat="42.82693" lon="1.15218">
        <ele>698</ele>
        <time>2010-01-01T04:38:51Z</time>
      </trkpt>
      <trkpt lat="42.82676" lon="1.15241">
        <ele>698</ele>
        <time>2010-01-01T04:39:02Z</time>
      </trkpt>
      <trkpt lat="42.82709" lon="1.15418">
        <ele>696</ele>
        <time>2010-01-01T04:40:10Z</time>
      </trkpt>
      <trkpt lat="42.82732" lon="1.15461">
        <ele>686</ele>
        <time>2010-01-01T04:40:29Z</time>
      </trkpt>
      <trkpt lat="42.8275" lon="1.15528">
        <ele>686</ele>
        <time>2010-01-01T04:40:55Z</time>
      </trkpt>
      <trkpt lat="42.82759" lon="1.15636">
        <ele>683</ele>
        <time>2010-01-01T04:41:35Z</time>
      </trkpt>
      <trkpt lat="42.82754" lon="1.1571">
        <ele>674</ele>
        <time>2010-01-01T04:42:02Z</time>
      </trkpt>
      <trkpt lat="42.82762" lon="1.15781">
        <ele>670</ele>
        <time>2010-01-01T04:42:29Z</time>
      </trkpt>
      <trkpt lat="42.82748" lon="1.15839">
        <ele>676</ele>
        <time>2010-01-01T04:42:51Z</time>
      </trkpt>
      <trkpt lat="42.82748" lon="1.15895">
        <ele>675</ele>
        <time>2010-01-01T04:43:11Z</time>
      </trkpt>
      <trkpt lat="42.82765" lon="1.16045">
        <ele>668</ele>
        <time>2010-01-01T04:44:07Z</time>
      </trkpt>
      <trkpt lat="42.8276" lon="1.16115">
        <ele>669</ele>
        <time>2010-01-01T04:44:33Z</time>
      </trkpt>
      <trkpt lat="42.82769" lon="1.16221">
        <ele>666</ele>
        <time>2010-01-01T04:45:12Z</time>
      </trkpt>
      <trkpt lat="42.82798" lon="1.16252">
        <ele>662</ele>
        <time>2010-01-01T04:45:30Z</time>
      </trkpt>
      <trkpt lat="42.82848" lon="1.16308">
        <ele>664</ele>
        <time>2010-01-01T04:46:03Z</time>
      </trkpt>
      <trkpt lat="42.82884" lon="1.16369">
        <ele>662</ele>
        <time>2010-01-01T04:46:32Z</time>
      </trkpt>
      <trkpt lat="42.82923" lon="1.16392">
        <ele>666</ele>
        <time>2010-01-01T04:46:53Z</time>
      </trkpt>
      <trkpt lat="42.8297" lon="1.16425">
        <ele>659</ele>
        <time>2010-01-01T04:47:19Z</time>
      </trkpt>
      <trkpt lat="42.8302" lon="1.16436">
        <ele>655</ele>
        <time>2010-01-01T04:47:45Z</time>
      </trkpt>
      <trkpt lat="42.83029" lon="1.1643">
        <ele>656</ele>
        <time>2010-01-01T04:47:50Z</time>
      </trkpt>
      <trkpt lat="42.83085" lon="1.16438">
        <ele>663</ele>
        <time>2010-01-01T04:48:18Z</time>
      </trkpt>
      <trkpt lat="42.8311" lon="1.16459">
        <ele>662</ele>
        <time>2010-01-01T04:48:33Z</time>
      </trkpt>
      <trkpt lat="42.83114" lon="1.16471">
        <ele>659</ele>
        <time>2010-01-01T04:48:38Z</time>
      </trkpt>
      <trkpt lat="42.83124" lon="1.1651">
        <ele>656</ele>
        <time>2010-01-01T04:48:53Z</time>
      </trkpt>
      <trkpt lat="42.83133" lon="1.16538">
        <ele>658</ele>
        <time>2010-01-01T04:49:04Z</time>
      </trkpt>
      <trkpt lat="42.83123" lon="1.16632">
        <ele>652</ele>
        <time>2010-01-01T04:49:39Z</time>
      </trkpt>
      <trkpt lat="42.83116" lon="1.16663">
        <ele>646</ele>
        <time>2010-01-01T04:49:51Z</time>
      </trkpt>
      <trkpt lat="42.83126" lon="1.16718">
        <ele>645</ele>
        <time>2010-01-01T04:50:11Z</time>
      </trkpt>
      <trkpt lat="42.83153" lon="1.16754">
        <ele>647</ele>
        <time>2010-01-01T04:50:30Z</time>
      </trkpt>
      <trkpt lat="42.83174" lon="1.1679">
        <ele>649</ele>
        <time>2010-01-01T04:50:47Z</time>
      </trkpt>
      <trkpt lat="42.83172" lon="1.16842">
        <ele>634</ele>
        <time>2010-01-01T04:51:06Z</time>
      </trkpt>
      <trkpt lat="42.8318" lon="1.16885">
        <ele>636</ele>
        <time>2010-01-01T04:51:22Z</time>
      </trkpt>
      <trkpt lat="42.83175" lon="1.16921">
        <ele>633</ele>
        <time>2010-01-01T04:51:36Z</time>
      </trkpt>
      <trkpt lat="42.83174" lon="1.16955">
        <ele>630</ele>
        <time>2010-01-01T04:51:48Z</time>
      </trkpt>
      <trkpt lat="42.83168" lon="1.16988">
        <ele>624</ele>
        <time>2010-01-01T04:52:01Z</time>
      </trkpt>
      <trkpt lat="42.83191" lon="1.17014">
        <ele>627</ele>
        <time>2010-01-01T04:52:16Z</time>
      </trkpt>
      <trkpt lat="42.8322" lon="1.17063">
        <ele>630</ele>
        <time>2010-01-01T04:52:39Z</time>
      </trkpt>
      <trkpt lat="42.83323" lon="1.17362">
        <ele>620</ele>
        <time>2010-01-01T04:54:40Z</time>
      </trkpt>
      <trkpt lat="42.83333" lon="1.17426">
        <ele>613</ele>
        <time>2010-01-01T04:55:04Z</time>
      </trkpt>
      <trkpt lat="42.83367" lon="1.17487">
        <ele>606</ele>
        <time>2010-01-01T04:55:32Z</time>
      </trkpt>
      <trkpt lat="42.83416" lon="1.17548">
        <ele>613</ele>
        <time>2010-01-01T04:56:05Z</time>
      </trkpt>
      <trkpt lat="42.83413" lon="1.17591">
        <ele>615</ele>
        <time>2010-01-01T04:56:21Z</time>
      </trkpt>
      <trkpt lat="42.83402" lon="1.17638">
        <ele>618</ele>
        <time>2010-01-01T04:56:39Z</time>
      </trkpt>
      <trkpt lat="42.83432" lon="1.17715">
        <ele>609</ele>
        <time>2010-01-01T04:57:11Z</time>
      </trkpt>
      <trkpt lat="42.83548" lon="1.1782">
        <ele>593</ele>
        <time>2010-01-01T04:58:21Z</time>
      </trkpt>
      <trkpt lat="42.83617" lon="1.17911">
        <ele>603</ele>
        <time>2010-01-01T04:59:09Z</time>
      </trkpt>
      <trkpt lat="42.83619" lon="1.18004">
        <ele>589</ele>
        <time>2010-01-01T04:59:43Z</time>
      </trkpt>
      <trkpt lat="42.83651" lon="1.18037">
        <ele>585</ele>
        <time>2010-01-01T05:00:03Z</time>
      </trkpt>
      <trkpt lat="42.83696" lon="1.1806">
        <ele>595</ele>
        <time>2010-01-01T05:00:27Z</time>
      </trkpt>
      <trkpt lat="42.83759" lon="1.1813">
        <ele>594</ele>
        <time>2010-01-01T05:01:08Z</time>
      </trkpt>
      <trkpt lat="42.83787" lon="1.1826">
        <ele>590</ele>
        <time>2010-01-01T05:01:57Z</time>
      </trkpt>
      <trkpt lat="42.83874" lon="1.18453">
        <ele>592</ele>
        <time>2010-01-01T05:03:20Z</time>
      </trkpt>
      <trkpt lat="42.83912" lon="1.18564">
        <ele>584</ele>
        <time>2010-01-01T05:04:05Z</time>
      </trkpt>
      <trkpt lat="42.83988" lon="1.18667">
        <ele>574</ele>
        <time>2010-01-01T05:04:59Z</time>
      </trkpt>
      <trkpt lat="42.8403" lon="1.18742">
        <ele>573</ele>
        <time>2010-01-01T05:05:34Z</time>
      </trkpt>
      <trkpt lat="42.84095" lon="1.18774">
        <ele>574</ele>
        <time>2010-01-01T05:06:08Z</time>
      </trkpt>
      <trkpt lat="42.8413" lon="1.18765">
        <ele>575</ele>
        <time>2010-01-01T05:06:26Z</time>
      </trkpt>
      <trkpt lat="42.84227" lon="1.18729">
        <ele>569</ele>
        <time>2010-01-01T05:07:16Z</time>
      </trkpt>
      <trkpt lat="42.84274" lon="1.18719">
        <ele>570</ele>
        <time>2010-01-01T05:07:40Z</time>
      </trkpt>
      <trkpt lat="42.84325" lon="1.18778">
        <ele>561</ele>
        <time>2010-01-01T05:08:14Z</time>
      </trkpt>
      <trkpt lat="42.84291" lon="1.18919">
        <ele>553</ele>
        <time>2010-01-01T05:09:08Z</time>
      </trkpt>
      <trkpt lat="42.8429" lon="1.18965">
        <ele>554</ele>
        <time>2010-01-01T05:09:25Z</time>
      </trkpt>
      <trkpt lat="42.84265" lon="1.18987">
        <ele>555</ele>
        <time>2010-01-01T05:09:40Z</time>
      </trkpt>
      <trkpt lat="42.84254" lon="1.19014">
        <ele>551</ele>
        <time>2010-01-01T05:09:51Z</time>
      </trkpt>
      <trkpt lat="42.84247" lon="1.19036">
        <ele>549</ele>
        <time>2010-01-01T05:10:00Z</time>
      </trkpt>
      <trkpt lat="42.84238" lon="1.19051">
        <ele>551</ele>
        <time>2010-01-01T05:10:07Z</time>
      </trkpt>
      <trkpt lat="42.84236" lon="1.19067">
        <ele>550</ele>
        <time>2010-01-01T05:10:13Z</time>
      </trkpt>
      <trkpt lat="42.84242" lon="1.19107">
        <ele>551.1</ele>
      </trkpt>
    </trkseg>
  </trk>
</gpx>